Observation data for Dell City 1N on 07/10/2018      Previous  Date       Current Mesonet Observations  Soil Data  Daily Summary Page  Observations in Plain Language
KDC1 100501Z 14010KT 24/17 A3025 RMK A01 T02370167  RH  065%=      5-min Rain = 0
KDC1 100502Z 14012KT 24/17 A3025 RMK A01 T02360168  RH  066%=      5-min Rain = 0
KDC1 100503Z 14013KT 24/17 A3025 RMK A01 T02350168  RH  066%=      5-min Rain = 0
KDC1 100504Z 14014KT 24/17 A3025 RMK A01 T02350168  RH  066%=      5-min Rain = 0
KDC1 100505Z 14016KT 24/17 A3025 RMK A01 T02350168  RH  066%=      5-min Rain = 0
KDC1 100506Z 13016KT 24/17 A3025 RMK A01 T02360168  RH  066%=      5-min Rain = 0
KDC1 100507Z 14014KT 24/17 A3025 RMK A01 T02360168  RH  066%=      5-min Rain = 0
KDC1 100508Z 14014KT 24/17 A3025 RMK A01 T02360168  RH  066%=      5-min Rain = 0
KDC1 100509Z 14014KT 24/17 A3025 RMK A01 T02360168  RH  066%=      5-min Rain = 0
KDC1 100510Z 14014KT 24/17 A3025 RMK A01 T02360168  RH  066%=      5-min Rain = 0
KDC1 100511Z 14013KT 24/17 A3025 RMK A01 T02360169  RH  066%=      5-min Rain = 0
KDC1 100512Z 14014KT 24/17 A3025 RMK A01 T02360169  RH  066%=      5-min Rain = 0
KDC1 100513Z 13014KT 24/17 A3025 RMK A01 T02370169  RH  066%=      5-min Rain = 0
KDC1 100514Z 13014KT 24/17 A3025 RMK A01 T02360169  RH  066%=      5-min Rain = 0
KDC1 100515Z 13013KT 24/17 A3025 RMK A01 T02360169  RH  066%=      5-min Rain = 0
KDC1 100516Z 14013KT 24/17 A3025 RMK A01 T02360169  RH  066%=      5-min Rain = 0
KDC1 100517Z 14014KT 24/17 A3025 RMK A01 T02360169  RH  066%=      5-min Rain = 0
KDC1 100518Z 14014KT 24/17 A3025 RMK A01 T02360169  RH  066%=      5-min Rain = 0
KDC1 100519Z 14014KT 24/17 A3025 RMK A01 T02360169  RH  066%=      5-min Rain = 0
KDC1 100520Z 14013KT 24/17 A3025 RMK A01 T02360169  RH  066%=      5-min Rain = 0
KDC1 100521Z 13012KT 24/17 A3025 RMK A01 T02360169  RH  066%=      5-min Rain = 0
KDC1 100522Z 14013KT 24/17 A3025 RMK A01 T02360169  RH  066%=      5-min Rain = 0
KDC1 100523Z 14012KT 24/17 A3025 RMK A01 T02360170  RH  066%=      5-min Rain = 0
KDC1 100524Z 14013KT 24/17 A3025 RMK A01 T02350170  RH  067%=      5-min Rain = 0
KDC1 100525Z 14010KT 24/17 A3025 RMK A01 T02350170  RH  067%=      5-min Rain = 0
KDC1 100526Z 14011KT 24/17 A3025 RMK A01 T02350170  RH  067%=      5-min Rain = 0
KDC1 100527Z 14009KT 23/17 A3025 RMK A01 T02340170  RH  067%=      5-min Rain = 0
KDC1 100528Z 14010KT 23/17 A3025 RMK A01 T02330170  RH  067%=      5-min Rain = 0
KDC1 100529Z 15012KT 23/17 A3025 RMK A01 T02330170  RH  068%=      5-min Rain = 0
KDC1 100530Z 15011KT 23/17 A3025 RMK A01 T02330170  RH  068%=      5-min Rain = 0
KDC1 100531Z 15010KT 23/17 A3025 RMK A01 T02330170  RH  068%=      5-min Rain = 0
KDC1 100532Z 16009KT 23/17 A3025 RMK A01 T02330170  RH  068%=      5-min Rain = 0
KDC1 100533Z 16009KT 23/17 A3025 RMK A01 T02330170  RH  068%=      5-min Rain = 0
KDC1 100534Z 15009KT 23/17 A3025 RMK A01 T02330170  RH  068%=      5-min Rain = 0
KDC1 100535Z 16009KT 23/17 A3025 RMK A01 T02330171  RH  068%=      5-min Rain = 0
KDC1 100536Z 17007KT 23/17 A3025 RMK A01 T02330171  RH  068%=      5-min Rain = 0
KDC1 100537Z 17007KT 23/17 A3025 RMK A01 T02330170  RH  068%=      5-min Rain = 0
KDC1 100538Z 17007KT 23/17 A3025 RMK A01 T02330170  RH  068%=      5-min Rain = 0
KDC1 100539Z 18006KT 23/17 A3025 RMK A01 T02330170  RH  068%=      5-min Rain = 0
KDC1 100540Z 17005KT 23/17 A3025 RMK A01 T02330171  RH  068%=      5-min Rain = 0
KDC1 100541Z 17006KT 23/17 A3025 RMK A01 T02320170  RH  068%=      5-min Rain = 0
KDC1 100542Z 18004KT 23/17 A3025 RMK A01 T02320171  RH  068%=      5-min Rain = 0
KDC1 100543Z 19004KT 23/17 A3025 RMK A01 T02320171  RH  069%=      5-min Rain = 0
KDC1 100544Z 17007KT 23/17 A3025 RMK A01 T02310172  RH  069%=      5-min Rain = 0
KDC1 100545Z 19004KT 23/17 A3025 RMK A01 T02310172  RH  069%=      5-min Rain = 0
KDC1 100546Z 17006KT 23/17 A3025 RMK A01 T02300172  RH  070%=      5-min Rain = 0
KDC1 100547Z 18007KT 23/17 A3025 RMK A01 T02300172  RH  070%=      5-min Rain = 0
KDC1 100548Z 19007KT 23/17 A3025 RMK A01 T02300172  RH  070%=      5-min Rain = 0
KDC1 100549Z 17007KT 23/17 A3025 RMK A01 T02300171  RH  070%=      5-min Rain = 0
KDC1 100550Z 18005KT 23/17 A3025 RMK A01 T02300171  RH  069%=      5-min Rain = 0
KDC1 100551Z 16007KT 23/17 A3025 RMK A01 T02310172  RH  069%=      5-min Rain = 0
KDC1 100552Z 15007KT 23/17 A3025 RMK A01 T02300172  RH  070%=      5-min Rain = 0
KDC1 100553Z 16008KT 23/17 A3025 RMK A01 T02290172  RH  070%=      5-min Rain = 0
KDC1 100554Z 15008KT 23/17 A3025 RMK A01 T02290172  RH  070%=      5-min Rain = 0
KDC1 100555Z 15011KT 23/17 A3025 RMK A01 T02280171  RH  070%=      5-min Rain = 0
KDC1 100556Z 15010KT 23/17 A3025 RMK A01 T02280171  RH  070%=      5-min Rain = 0
KDC1 100557Z 15010KT 23/17 A3025 RMK A01 T02290171  RH  070%=      5-min Rain = 0
KDC1 100558Z 15012KT 23/17 A3025 RMK A01 T02290171  RH  070%=      5-min Rain = 0
KDC1 100559Z 14010KT 23/17 A3025 RMK A01 T02290171  RH  070%=      5-min Rain = 0
KDC1 100600Z 14011KT 23/17 A3025 RMK A01 T02300171  RH  069%=      5-min Rain = 0
KDC1 100601Z 14013KT 23/17 A3025 RMK A01 T02300171  RH  069%=      5-min Rain = 0
KDC1 100602Z 14013KT 23/17 A3025 RMK A01 T02300171  RH  069%=      5-min Rain = 0
KDC1 100603Z 14011KT 23/17 A3025 RMK A01 T02310171  RH  069%=      5-min Rain = 0
KDC1 100604Z 13010KT 23/17 A3025 RMK A01 T02310171  RH  069%=      5-min Rain = 0
KDC1 100605Z 14008KT 23/17 A3025 RMK A01 T02310171  RH  069%=      5-min Rain = 0
KDC1 100606Z 14008KT 23/17 A3025 RMK A01 T02300171  RH  069%=      5-min Rain = 0
KDC1 100607Z 14010KT 23/17 A3025 RMK A01 T02290171  RH  070%=      5-min Rain = 0
KDC1 100608Z 13009KT 23/17 A3025 RMK A01 T02290171  RH  070%=      5-min Rain = 0
KDC1 100609Z 13011KT 23/17 A3025 RMK A01 T02290171  RH  070%=      5-min Rain = 0
KDC1 100610Z 13011KT 23/17 A3025 RMK A01 T02290171  RH  070%=      5-min Rain = 0
KDC1 100611Z 13009KT 23/17 A3025 RMK A01 T02290171  RH  070%=      5-min Rain = 0
KDC1 100612Z 13010KT 23/17 A3025 RMK A01 T02280171  RH  070%=      5-min Rain = 0
KDC1 100613Z 14011KT 23/17 A3025 RMK A01 T02280171  RH  070%=      5-min Rain = 0
KDC1 100614Z 14011KT 23/17 A3025 RMK A01 T02280171  RH  070%=      5-min Rain = 0
KDC1 100615Z 14010KT 23/17 A3025 RMK A01 T02280171  RH  070%=      5-min Rain = 0
KDC1 100616Z 14010KT 23/17 A3026 RMK A01 T02280172  RH  070%=      5-min Rain = 0
KDC1 100617Z 14009KT 23/17 A3026 RMK A01 T02280171  RH  070%=      5-min Rain = 0
KDC1 100618Z 14008KT 23/17 A3026 RMK A01 T02280172  RH  070%=      5-min Rain = 0
KDC1 100619Z 15008KT 23/17 A3026 RMK A01 T02280172  RH  071%=      5-min Rain = 0
KDC1 100620Z 15008KT 23/17 A3026 RMK A01 T02270172  RH  071%=      5-min Rain = 0
KDC1 100621Z 15009KT 23/17 A3026 RMK A01 T02260172  RH  071%=      5-min Rain = 0
KDC1 100622Z 15007KT 23/17 A3026 RMK A01 T02260172  RH  071%=      5-min Rain = 0
KDC1 100623Z 16006KT 23/17 A3026 RMK A01 T02260172  RH  071%=      5-min Rain = 0
KDC1 100624Z 16005KT 23/17 A3026 RMK A01 T02260172  RH  071%=      5-min Rain = 0
KDC1 100625Z 16004KT 23/17 A3026 RMK A01 T02260172  RH  071%=      5-min Rain = 0
KDC1 100626Z 16004KT 23/17 A3026 RMK A01 T02260172  RH  071%=      5-min Rain = 0
KDC1 100627Z 16003KT 23/17 A3026 RMK A01 T02250171  RH  072%=      5-min Rain = 0
KDC1 100628Z 16003KT 23/17 A3026 RMK A01 T02250171  RH  072%=      5-min Rain = 0
KDC1 100629Z 16004KT 23/17 A3026 RMK A01 T02250171  RH  072%=      5-min Rain = 0
KDC1 100630Z 15004KT 22/17 A3026 RMK A01 T02240172  RH  072%=      5-min Rain = 0
KDC1 100631Z 14006KT 22/17 A3026 RMK A01 T02240172  RH  072%=      5-min Rain = 0
KDC1 100632Z 14006KT 22/17 A3026 RMK A01 T02240173  RH  073%=      5-min Rain = 0
KDC1 100633Z 15009KT 22/17 A3025 RMK A01 T02240173  RH  073%=      5-min Rain = 0
KDC1 100634Z 14011KT 22/17 A3025 RMK A01 T02230172  RH  073%=      5-min Rain = 0
KDC1 100635Z 14010KT 22/17 A3025 RMK A01 T02240173  RH  073%=      5-min Rain = 0
KDC1 100636Z 14011KT 23/17 A3025 RMK A01 T02250173  RH  072%=      5-min Rain = 0
KDC1 100637Z 14009KT 23/17 A3025 RMK A01 T02250173  RH  072%=      5-min Rain = 0
KDC1 100638Z 14008KT 23/17 A3025 RMK A01 T02260173  RH  072%=      5-min Rain = 0
KDC1 100639Z 14010KT 23/17 A3025 RMK A01 T02260173  RH  072%=      5-min Rain = 0
KDC1 100640Z 14009KT 23/17 A3025 RMK A01 T02260173  RH  072%=      5-min Rain = 0
KDC1 100641Z 14008KT 23/17 A3025 RMK A01 T02260173  RH  072%=      5-min Rain = 0
KDC1 100642Z 15010KT 23/17 A3025 RMK A01 T02260173  RH  072%=      5-min Rain = 0
KDC1 100643Z 15009KT 23/17 A3025 RMK A01 T02260173  RH  072%=      5-min Rain = 0
KDC1 100644Z 15008KT 23/17 A3025 RMK A01 T02260173  RH  072%=      5-min Rain = 0
KDC1 100645Z 15008KT 23/17 A3025 RMK A01 T02250173  RH  072%=      5-min Rain = 0
KDC1 100646Z 15009KT 23/17 A3025 RMK A01 T02250173  RH  072%=      5-min Rain = 0
KDC1 100647Z 15009KT 23/17 A3025 RMK A01 T02250173  RH  072%=      5-min Rain = 0
KDC1 100648Z 15007KT 23/17 A3025 RMK A01 T02250173  RH  072%=      5-min Rain = 0
KDC1 100649Z 14009KT 23/17 A3025 RMK A01 T02250173  RH  072%=      5-min Rain = 0
KDC1 100650Z 14010KT 23/17 A3025 RMK A01 T02250173  RH  073%=      5-min Rain = 0
KDC1 100651Z 14011KT 23/17 A3025 RMK A01 T02250173  RH  073%=      5-min Rain = 0
KDC1 100652Z 14011KT 23/17 A3025 RMK A01 T02250173  RH  073%=      5-min Rain = 0
KDC1 100653Z 14010KT 23/17 A3025 RMK A01 T02250173  RH  073%=      5-min Rain = 0
KDC1 100654Z 14011KT 23/17 A3025 RMK A01 T02250173  RH  073%=      5-min Rain = 0
KDC1 100655Z 14011KT 23/17 A3025 RMK A01 T02250174  RH  073%=      5-min Rain = 0
KDC1 100656Z 14011KT 23/17 A3025 RMK A01 T02250174  RH  073%=      5-min Rain = 0
KDC1 100657Z 14012KT 22/17 A3025 RMK A01 T02240174  RH  073%=      5-min Rain = 0
KDC1 100658Z 14014KT 22/17 A3025 RMK A01 T02240174  RH  073%=      5-min Rain = 0
KDC1 100659Z 14013KT 23/17 A3025 RMK A01 T02250174  RH  073%=      5-min Rain = 0
KDC1 100700Z 14012KT 23/17 A3025 RMK A01 T02250174  RH  073%=      5-min Rain = 0
KDC1 100701Z 14012KT 23/17 A3025 RMK A01 T02250174  RH  073%=      5-min Rain = 0
KDC1 100702Z 14011KT 23/17 A3025 RMK A01 T02250174  RH  073%=      5-min Rain = 0
KDC1 100703Z 14011KT 23/17 A3025 RMK A01 T02250174  RH  073%=      5-min Rain = 0
KDC1 100704Z 14010KT 23/17 A3025 RMK A01 T02250174  RH  073%=      5-min Rain = 0
KDC1 100705Z 13011KT 22/17 A3025 RMK A01 T02240174  RH  073%=      5-min Rain = 0
KDC1 100706Z 13010KT 22/17 A3025 RMK A01 T02240173  RH  073%=      5-min Rain = 0
KDC1 100707Z 13010KT 22/17 A3025 RMK A01 T02240174  RH  073%=      5-min Rain = 0
KDC1 100708Z 13010KT 22/17 A3025 RMK A01 T02240173  RH  073%=      5-min Rain = 0
KDC1 100709Z 13009KT 22/17 A3025 RMK A01 T02240174  RH  073%=      5-min Rain = 0
KDC1 100710Z 13009KT 22/17 A3025 RMK A01 T02240174  RH  073%=      5-min Rain = 0
KDC1 100711Z 13009KT 22/17 A3025 RMK A01 T02240174  RH  073%=      5-min Rain = 0
KDC1 100712Z 13008KT 22/17 A3025 RMK A01 T02240173  RH  073%=      5-min Rain = 0
KDC1 100713Z 13008KT 22/17 A3025 RMK A01 T02230173  RH  073%=      5-min Rain = 0
KDC1 100714Z 13007KT 22/17 A3025 RMK A01 T02230173  RH  073%=      5-min Rain = 0
KDC1 100715Z 13007KT 22/17 A3025 RMK A01 T02220174  RH  074%=      5-min Rain = 0
KDC1 100716Z 14008KT 22/17 A3025 RMK A01 T02210173  RH  074%=      5-min Rain = 0
KDC1 100717Z 14008KT 22/17 A3025 RMK A01 T02210174  RH  074%=      5-min Rain = 0
KDC1 100718Z 14007KT 22/17 A3025 RMK A01 T02210174  RH  075%=      5-min Rain = 0
KDC1 100719Z 14007KT 22/17 A3025 RMK A01 T02210174  RH  075%=      5-min Rain = 0
KDC1 100720Z 13006KT 22/17 A3025 RMK A01 T02200174  RH  075%=      5-min Rain = 0
KDC1 100721Z 13006KT 22/17 A3025 RMK A01 T02200174  RH  075%=      5-min Rain = 0
KDC1 100722Z 12006KT 22/17 A3025 RMK A01 T02190173  RH  075%=      5-min Rain = 0
KDC1 100723Z 12005KT 22/17 A3025 RMK A01 T02190173  RH  075%=      5-min Rain = 0
KDC1 100724Z 12006KT 22/17 A3025 RMK A01 T02190173  RH  075%=      5-min Rain = 0
KDC1 100725Z 13006KT 22/17 A3025 RMK A01 T02190173  RH  075%=      5-min Rain = 0
KDC1 100726Z 13005KT 22/17 A3025 RMK A01 T02200174  RH  075%=      5-min Rain = 0
KDC1 100727Z 13006KT 22/17 A3025 RMK A01 T02190173  RH  075%=      5-min Rain = 0
KDC1 100728Z 14006KT 22/17 A3025 RMK A01 T02190174  RH  076%=      5-min Rain = 0
KDC1 100729Z 14007KT 22/17 A3025 RMK A01 T02180174  RH  076%=      5-min Rain = 0
KDC1 100730Z 14007KT 22/17 A3025 RMK A01 T02170174  RH  076%=      5-min Rain = 0
KDC1 100731Z 15007KT 22/17 A3025 RMK A01 T02170174  RH  076%=      5-min Rain = 0
KDC1 100732Z 14008KT 22/17 A3025 RMK A01 T02170174  RH  076%=      5-min Rain = 0
KDC1 100733Z 14007KT 22/17 A3025 RMK A01 T02170174  RH  077%=      5-min Rain = 0
KDC1 100734Z 14008KT 22/17 A3025 RMK A01 T02170174  RH  076%=      5-min Rain = 0
KDC1 100735Z 14007KT 22/17 A3025 RMK A01 T02170174  RH  076%=      5-min Rain = 0
KDC1 100736Z 14006KT 22/17 A3025 RMK A01 T02170174  RH  076%=      5-min Rain = 0
KDC1 100737Z 14006KT 22/17 A3025 RMK A01 T02170174  RH  076%=      5-min Rain = 0
KDC1 100738Z 13007KT 22/17 A3025 RMK A01 T02180174  RH  076%=      5-min Rain = 0
KDC1 100739Z 14007KT 22/17 A3025 RMK A01 T02170174  RH  076%=      5-min Rain = 0
KDC1 100740Z 14006KT 22/17 A3025 RMK A01 T02180174  RH  076%=      5-min Rain = 0
KDC1 100741Z 14006KT 22/17 A3025 RMK A01 T02170174  RH  076%=      5-min Rain = 0
KDC1 100742Z 14006KT 22/17 A3025 RMK A01 T02170174  RH  076%=      5-min Rain = 0
KDC1 100743Z 14006KT 22/17 A3025 RMK A01 T02170174  RH  076%=      5-min Rain = 0
KDC1 100744Z 14006KT 22/17 A3025 RMK A01 T02170174  RH  076%=      5-min Rain = 0
KDC1 100745Z 13006KT 22/17 A3025 RMK A01 T02160174  RH  077%=      5-min Rain = 0
KDC1 100746Z 13005KT 22/17 A3025 RMK A01 T02160173  RH  077%=      5-min Rain = 0
KDC1 100747Z 13005KT 22/17 A3025 RMK A01 T02160173  RH  077%=      5-min Rain = 0
KDC1 100748Z 13005KT 22/17 A3025 RMK A01 T02160173  RH  077%=      5-min Rain = 0
KDC1 100749Z 13005KT 22/17 A3025 RMK A01 T02160173  RH  077%=      5-min Rain = 0
KDC1 100750Z 13005KT 22/17 A3025 RMK A01 T02160173  RH  076%=      5-min Rain = 0
KDC1 100751Z 14005KT 22/17 A3025 RMK A01 T02160173  RH  076%=      5-min Rain = 0
KDC1 100752Z 14005KT 22/17 A3025 RMK A01 T02160172  RH  076%=      5-min Rain = 0
KDC1 100753Z 14005KT 22/17 A3025 RMK A01 T02160173  RH  076%=      5-min Rain = 0
KDC1 100754Z 14004KT 22/17 A3025 RMK A01 T02150172  RH  077%=      5-min Rain = 0
KDC1 100755Z 14005KT 22/17 A3025 RMK A01 T02150172  RH  077%=      5-min Rain = 0
KDC1 100756Z 14004KT 21/17 A3025 RMK A01 T02140172  RH  077%=      5-min Rain = 0
KDC1 100757Z 15004KT 21/17 A3025 RMK A01 T02140173  RH  077%=      5-min Rain = 0
KDC1 100758Z 16003KT 21/17 A3025 RMK A01 T02130172  RH  078%=      5-min Rain = 0
KDC1 100759Z 17003KT 21/17 A3025 RMK A01 T02130173  RH  078%=      5-min Rain = 0
KDC1 100800Z 18002KT 21/17 A3025 RMK A01 T02130172  RH  077%=      5-min Rain = 0
KDC1 100801Z 20003KT 21/17 A3025 RMK A01 T02140173  RH  077%=      5-min Rain = 0
KDC1 100802Z 20002KT 21/17 A3024 RMK A01 T02140172  RH  077%=      5-min Rain = 0
KDC1 100803Z 21002KT 21/17 A3024 RMK A01 T02140172  RH  077%=      5-min Rain = 0
KDC1 100804Z 21002KT 21/17 A3024 RMK A01 T02140173  RH  077%=      5-min Rain = 0
KDC1 100805Z 20002KT 22/17 A3024 RMK A01 T02150172  RH  077%=      5-min Rain = 0
KDC1 100806Z 25003KT 22/17 A3024 RMK A01 T02150172  RH  077%=      5-min Rain = 0
KDC1 100807Z 25003KT 22/17 A3024 RMK A01 T02150173  RH  077%=      5-min Rain = 0
KDC1 100808Z 26004KT 21/17 A3024 RMK A01 T02140174  RH  077%=      5-min Rain = 0
KDC1 100809Z 25004KT 21/17 A3024 RMK A01 T02130173  RH  078%=      5-min Rain = 0
KDC1 100810Z 25003KT 21/17 A3024 RMK A01 T02120173  RH  078%=      5-min Rain = 0
KDC1 100811Z 22003KT 21/17 A3024 RMK A01 T02110173  RH  079%=      5-min Rain = 0
KDC1 100812Z 21003KT 21/17 A3024 RMK A01 T02110174  RH  080%=      5-min Rain = 0
KDC1 100813Z 21004KT 21/18 A3024 RMK A01 T02110175  RH  080%=      5-min Rain = 0
KDC1 100814Z 23003KT 21/17 A3024 RMK A01 T02110174  RH  079%=      5-min Rain = 0
KDC1 100815Z 18002KT 21/17 A3024 RMK A01 T02120174  RH  079%=      5-min Rain = 0
KDC1 100816Z 17002KT 21/17 A3024 RMK A01 T02120174  RH  078%=      5-min Rain = 0
KDC1 100817Z 20002KT 21/17 A3024 RMK A01 T02130174  RH  078%=      5-min Rain = 0
KDC1 100818Z 18002KT 21/17 A3024 RMK A01 T02140173  RH  078%=      5-min Rain = 0
KDC1 100819Z 21002KT 22/17 A3024 RMK A01 T02150174  RH  077%=      5-min Rain = 0
KDC1 100820Z 25002KT 22/18 A3024 RMK A01 T02150175  RH  078%=      5-min Rain = 0
KDC1 100821Z 25003KT 21/18 A3024 RMK A01 T02140175  RH  078%=      5-min Rain = 0
KDC1 100822Z 21002KT 21/17 A3024 RMK A01 T02130174  RH  078%=      5-min Rain = 0
KDC1 100823Z 22003KT 21/17 A3024 RMK A01 T02130174  RH  078%=      5-min Rain = 0
KDC1 100824Z 23003KT 21/17 A3024 RMK A01 T02130174  RH  078%=      5-min Rain = 0
KDC1 100825Z 23003KT 21/17 A3024 RMK A01 T02130174  RH  078%=      5-min Rain = 0
KDC1 100826Z 23002KT 21/17 A3024 RMK A01 T02130174  RH  078%=      5-min Rain = 0
KDC1 100827Z 19003KT 21/17 A3024 RMK A01 T02130173  RH  078%=      5-min Rain = 0
KDC1 100828Z 19003KT 21/17 A3024 RMK A01 T02130173  RH  078%=      5-min Rain = 0
KDC1 100829Z 18004KT 21/17 A3024 RMK A01 T02130171  RH  077%=      5-min Rain = 0
KDC1 100830Z 17003KT 22/17 A3024 RMK A01 T02150170  RH  076%=      5-min Rain = 0
KDC1 100831Z 16004KT 22/17 A3024 RMK A01 T02170170  RH  074%=      5-min Rain = 0
KDC1 100832Z 17002KT 22/17 A3024 RMK A01 T02190169  RH  074%=      5-min Rain = 0
KDC1 100833Z 17003KT 22/17 A3024 RMK A01 T02190170  RH  073%=      5-min Rain = 0
KDC1 100834Z 16001KT 22/17 A3024 RMK A01 T02190170  RH  073%=      5-min Rain = 0
KDC1 100835Z 16002KT 22/17 A3024 RMK A01 T02190169  RH  073%=      5-min Rain = 0
KDC1 100836Z 17002KT 22/17 A3024 RMK A01 T02190168  RH  073%=      5-min Rain = 0
KDC1 100837Z 17002KT 22/17 A3024 RMK A01 T02190168  RH  073%=      5-min Rain = 0
KDC1 100838Z 16002KT 22/17 A3024 RMK A01 T02190169  RH  073%=      5-min Rain = 0
KDC1 100839Z 14003KT 22/17 A3024 RMK A01 T02190169  RH  073%=      5-min Rain = 0
KDC1 100840Z 12002KT 22/17 A3024 RMK A01 T02190168  RH  073%=      5-min Rain = 0
KDC1 100841Z 14001KT 22/17 A3024 RMK A01 T02200168  RH  073%=      5-min Rain = 0
KDC1 100842Z 13001KT 22/17 A3024 RMK A01 T02200168  RH  073%=      5-min Rain = 0
KDC1 100843Z 10001KT 22/17 A3024 RMK A01 T02200168  RH  072%=      5-min Rain = 0
KDC1 100844Z 10001KT 22/17 A3024 RMK A01 T02200168  RH  073%=      5-min Rain = 0
KDC1 100845Z 10001KT 22/17 A3024 RMK A01 T02200169  RH  073%=      5-min Rain = 0
KDC1 100846Z 09000KT 22/17 A3024 RMK A01 T02200168  RH  073%=      5-min Rain = 0
KDC1 100847Z 11002KT 22/17 A3024 RMK A01 T02200169  RH  073%=      5-min Rain = 0
KDC1 100848Z 10001KT 22/17 A3024 RMK A01 T02190168  RH  073%=      5-min Rain = 0
KDC1 100849Z 11001KT 22/17 A3024 RMK A01 T02200168  RH  072%=      5-min Rain = 0
KDC1 100850Z 12001KT 22/17 A3024 RMK A01 T02200167  RH  072%=      5-min Rain = 0
KDC1 100851Z 13001KT 22/17 A3023 RMK A01 T02200167  RH  072%=      5-min Rain = 0
KDC1 100852Z 17000KT 22/17 A3023 RMK A01 T02180166  RH  072%=      5-min Rain = 0
KDC1 100853Z 19001KT 22/17 A3023 RMK A01 T02170166  RH  073%=      5-min Rain = 0
KDC1 100854Z 21001KT 21/17 A3023 RMK A01 T02140168  RH  075%=      5-min Rain = 0
KDC1 100855Z 23002KT 21/17 A3023 RMK A01 T02120167  RH  075%=      5-min Rain = 0
KDC1 100856Z 24003KT 21/17 A3023 RMK A01 T02120167  RH  075%=      5-min Rain = 0
KDC1 100857Z 25003KT 21/17 A3023 RMK A01 T02120169  RH  076%=      5-min Rain = 0
KDC1 100858Z 26002KT 21/17 A3023 RMK A01 T02120169  RH  077%=      5-min Rain = 0
KDC1 100859Z 26002KT 21/17 A3023 RMK A01 T02100169  RH  077%=      5-min Rain = 0
KDC1 100900Z 26003KT 21/17 A3023 RMK A01 T02070169  RH  078%=      5-min Rain = 0
KDC1 100901Z 27004KT 20/17 A3023 RMK A01 T02040169  RH  080%=      5-min Rain = 0
KDC1 100902Z 26003KT 20/17 A3023 RMK A01 T02030168  RH  081%=      5-min Rain = 0
KDC1 100903Z 27003KT 20/17 A3023 RMK A01 T02000168  RH  082%=      5-min Rain = 0
KDC1 100904Z 28003KT 20/17 A3023 RMK A01 T01980168  RH  083%=      5-min Rain = 0
KDC1 100905Z 29004KT 20/17 A3023 RMK A01 T01960169  RH  084%=      5-min Rain = 0
KDC1 100906Z 29005KT 19/17 A3023 RMK A01 T01940169  RH  086%=      5-min Rain = 0
KDC1 100907Z 28005KT 19/17 A3023 RMK A01 T01920170  RH  087%=      5-min Rain = 0
KDC1 100908Z 28005KT 19/17 A3023 RMK A01 T01920170  RH  087%=      5-min Rain = 0
KDC1 100909Z 28005KT 19/17 A3023 RMK A01 T01920170  RH  087%=      5-min Rain = 0
KDC1 100910Z 28006KT 19/17 A3023 RMK A01 T01910170  RH  087%=      5-min Rain = 0
KDC1 100911Z 28005KT 19/17 A3023 RMK A01 T01910169  RH  087%=      5-min Rain = 0
KDC1 100912Z 28004KT 19/17 A3023 RMK A01 T01910169  RH  087%=      5-min Rain = 0
KDC1 100913Z 28004KT 19/17 A3023 RMK A01 T01910168  RH  087%=      5-min Rain = 0
KDC1 100914Z 27004KT 19/17 A3023 RMK A01 T01910168  RH  086%=      5-min Rain = 0
KDC1 100915Z 28005KT 19/17 A3023 RMK A01 T01910168  RH  086%=      5-min Rain = 0
KDC1 100916Z 28006KT 19/17 A3023 RMK A01 T01920168  RH  086%=      5-min Rain = 0
KDC1 100917Z 28006KT 19/17 A3023 RMK A01 T01930169  RH  086%=      5-min Rain = 0
KDC1 100918Z 29007KT 19/17 A3023 RMK A01 T01930170  RH  086%=      5-min Rain = 0
KDC1 100919Z 29006KT 19/17 A3023 RMK A01 T01940170  RH  086%=      5-min Rain = 0
KDC1 100920Z 29005KT 19/17 A3023 RMK A01 T01940169  RH  086%=      5-min Rain = 0
KDC1 100921Z 29005KT 19/17 A3023 RMK A01 T01940169  RH  085%=      5-min Rain = 0
KDC1 100922Z 30005KT 19/17 A3023 RMK A01 T01940169  RH  085%=      5-min Rain = 0
KDC1 100923Z 30005KT 20/17 A3023 RMK A01 T01950169  RH  085%=      5-min Rain = 0
KDC1 100924Z 30005KT 20/17 A3023 RMK A01 T01950169  RH  085%=      5-min Rain = 0
KDC1 100925Z 30005KT 20/17 A3023 RMK A01 T01950169  RH  085%=      5-min Rain = 0
KDC1 100926Z 30005KT 19/17 A3022 RMK A01 T01940169  RH  086%=      5-min Rain = 0
KDC1 100927Z 30005KT 19/17 A3022 RMK A01 T01940169  RH  086%=      5-min Rain = 0
KDC1 100928Z 30005KT 19/17 A3022 RMK A01 T01940169  RH  086%=      5-min Rain = 0
KDC1 100929Z 30005KT 19/17 A3022 RMK A01 T01930168  RH  085%=      5-min Rain = 0
KDC1 100930Z 30006KT 19/17 A3022 RMK A01 T01930169  RH  086%=      5-min Rain = 0
KDC1 100931Z 30006KT 19/17 A3022 RMK A01 T01930169  RH  086%=      5-min Rain = 0
KDC1 100932Z 30006KT 19/17 A3022 RMK A01 T01920169  RH  086%=      5-min Rain = 0
KDC1 100933Z 31006KT 19/17 A3022 RMK A01 T01920169  RH  086%=      5-min Rain = 0
KDC1 100934Z 31006KT 19/17 A3022 RMK A01 T01920169  RH  086%=      5-min Rain = 0
KDC1 100935Z 31006KT 19/17 A3022 RMK A01 T01920169  RH  086%=      5-min Rain = 0
KDC1 100936Z 32006KT 19/17 A3023 RMK A01 T01920168  RH  086%=      5-min Rain = 0
KDC1 100937Z 32006KT 19/17 A3023 RMK A01 T01910168  RH  086%=      5-min Rain = 0
KDC1 100938Z 33006KT 19/17 A3023 RMK A01 T01910168  RH  087%=      5-min Rain = 0
KDC1 100939Z 33005KT 19/17 A3023 RMK A01 T01910168  RH  087%=      5-min Rain = 0
KDC1 100940Z 33004KT 19/17 A3023 RMK A01 T01910168  RH  087%=      5-min Rain = 0
KDC1 100941Z 33004KT 19/17 A3023 RMK A01 T01900168  RH  087%=      5-min Rain = 0
KDC1 100942Z 33004KT 19/17 A3023 RMK A01 T01900168  RH  087%=      5-min Rain = 0
KDC1 100943Z 32003KT 19/17 A3023 RMK A01 T01900167  RH  087%=      5-min Rain = 0
KDC1 100944Z 31003KT 19/17 A3023 RMK A01 T01890167  RH  087%=      5-min Rain = 0
KDC1 100945Z 30003KT 19/17 A3023 RMK A01 T01890167  RH  087%=      5-min Rain = 0
KDC1 100946Z 31003KT 19/17 A3023 RMK A01 T01880167  RH  087%=      5-min Rain = 0
KDC1 100947Z 31004KT 19/17 A3023 RMK A01 T01880167  RH  087%=      5-min Rain = 0
KDC1 100948Z 32003KT 19/17 A3023 RMK A01 T01870166  RH  088%=      5-min Rain = 0
KDC1 100949Z 31003KT 19/17 A3023 RMK A01 T01870166  RH  088%=      5-min Rain = 0
KDC1 100950Z 30003KT 19/17 A3023 RMK A01 T01870166  RH  088%=      5-min Rain = 0
KDC1 100951Z 30004KT 19/17 A3023 RMK A01 T01860165  RH  087%=      5-min Rain = 0
KDC1 100952Z 29003KT 19/17 A3023 RMK A01 T01860165  RH  088%=      5-min Rain = 0
KDC1 100953Z 29003KT 19/17 A3023 RMK A01 T01860165  RH  087%=      5-min Rain = 0
KDC1 100954Z 30003KT 19/17 A3023 RMK A01 T01870165  RH  087%=      5-min Rain = 0
KDC1 100955Z 30003KT 19/17 A3023 RMK A01 T01880165  RH  087%=      5-min Rain = 0
KDC1 100956Z 30003KT 19/17 A3023 RMK A01 T01880166  RH  087%=      5-min Rain = 0
KDC1 100957Z 31004KT 19/17 A3023 RMK A01 T01890166  RH  086%=      5-min Rain = 0
KDC1 100958Z 31004KT 19/17 A3023 RMK A01 T01890165  RH  086%=      5-min Rain = 0
KDC1 100959Z 31004KT 19/17 A3023 RMK A01 T01890165  RH  086%=      5-min Rain = 0
KDC1 101000Z 32005KT 19/17 A3023 RMK A01 T01890165  RH  086%=      5-min Rain = 0
KDC1 101001Z 32005KT 19/16 A3023 RMK A01 T01880164  RH  086%=      5-min Rain = 0
KDC1 101002Z 32006KT 19/16 A3023 RMK A01 T01870164  RH  087%=      5-min Rain = 0
KDC1 101003Z 32006KT 19/16 A3023 RMK A01 T01870164  RH  087%=      5-min Rain = 0
KDC1 101004Z 32006KT 19/16 A3023 RMK A01 T01870164  RH  086%=      5-min Rain = 0
KDC1 101005Z 32006KT 19/16 A3023 RMK A01 T01870164  RH  086%=      5-min Rain = 0
KDC1 101006Z 33007KT 19/16 A3023 RMK A01 T01870163  RH  086%=      5-min Rain = 0
KDC1 101007Z 33006KT 19/16 A3023 RMK A01 T01880164  RH  086%=      5-min Rain = 0
KDC1 101008Z 33007KT 19/17 A3023 RMK A01 T01890165  RH  086%=      5-min Rain = 0
KDC1 101009Z 33006KT 19/17 A3023 RMK A01 T01900165  RH  085%=      5-min Rain = 0
KDC1 101010Z 33006KT 19/17 A3023 RMK A01 T01920166  RH  085%=      5-min Rain = 0
KDC1 101011Z 33006KT 19/17 A3023 RMK A01 T01930166  RH  085%=      5-min Rain = 0
KDC1 101012Z 33006KT 19/17 A3023 RMK A01 T01930166  RH  084%=      5-min Rain = 0
KDC1 101013Z 33006KT 19/17 A3023 RMK A01 T01930166  RH  084%=      5-min Rain = 0
KDC1 101014Z 33005KT 19/17 A3023 RMK A01 T01930166  RH  084%=      5-min Rain = 0
KDC1 101015Z 33006KT 19/17 A3023 RMK A01 T01940166  RH  084%=      5-min Rain = 0
KDC1 101016Z 32006KT 19/17 A3023 RMK A01 T01940167  RH  084%=      5-min Rain = 0
KDC1 101017Z 32006KT 19/17 A3023 RMK A01 T01940167  RH  084%=      5-min Rain = 0
KDC1 101018Z 32006KT 19/17 A3023 RMK A01 T01940168  RH  085%=      5-min Rain = 0
KDC1 101019Z 32006KT 19/17 A3023 RMK A01 T01940168  RH  085%=      5-min Rain = 0
KDC1 101020Z 31005KT 19/17 A3023 RMK A01 T01930168  RH  085%=      5-min Rain = 0
KDC1 101021Z 31005KT 19/17 A3023 RMK A01 T01920168  RH  086%=      5-min Rain = 0
KDC1 101022Z 30005KT 19/17 A3023 RMK A01 T01920168  RH  086%=      5-min Rain = 0
KDC1 101023Z 29005KT 19/17 A3023 RMK A01 T01910168  RH  086%=      5-min Rain = 0
KDC1 101024Z 30005KT 19/17 A3023 RMK A01 T01900168  RH  087%=      5-min Rain = 0
KDC1 101025Z 31006KT 19/17 A3023 RMK A01 T01890167  RH  087%=      5-min Rain = 0
KDC1 101026Z 32005KT 19/17 A3023 RMK A01 T01890167  RH  087%=      5-min Rain = 0
KDC1 101027Z 32005KT 19/17 A3023 RMK A01 T01900168  RH  087%=      5-min Rain = 0
KDC1 101028Z 32005KT 19/17 A3023 RMK A01 T01920168  RH  086%=      5-min Rain = 0
KDC1 101029Z 32005KT 19/17 A3023 RMK A01 T01920167  RH  085%=      5-min Rain = 0
KDC1 101030Z 32005KT 19/17 A3023 RMK A01 T01930168  RH  085%=      5-min Rain = 0
KDC1 101031Z 32006KT 19/17 A3023 RMK A01 T01930167  RH  085%=      5-min Rain = 0
KDC1 101032Z 32005KT 19/17 A3023 RMK A01 T01930168  RH  085%=      5-min Rain = 0
KDC1 101033Z 32005KT 19/17 A3023 RMK A01 T01930168  RH  085%=      5-min Rain = 0
KDC1 101034Z 31005KT 19/17 A3023 RMK A01 T01930167  RH  085%=      5-min Rain = 0
KDC1 101035Z 31004KT 19/17 A3023 RMK A01 T01940168  RH  085%=      5-min Rain = 0
KDC1 101036Z 30004KT 19/17 A3023 RMK A01 T01940168  RH  085%=      5-min Rain = 0
KDC1 101037Z 29005KT 19/17 A3023 RMK A01 T01940167  RH  085%=      5-min Rain = 0
KDC1 101038Z 27005KT 19/17 A3023 RMK A01 T01940168  RH  085%=      5-min Rain = 0
KDC1 101039Z 25004KT 19/17 A3023 RMK A01 T01940168  RH  085%=      5-min Rain = 0
KDC1 101040Z 25004KT 19/17 A3023 RMK A01 T01930168  RH  085%=      5-min Rain = 0
KDC1 101041Z 25004KT 19/17 A3023 RMK A01 T01920168  RH  086%=      5-min Rain = 0
KDC1 101042Z 26006KT 19/17 A3023 RMK A01 T01910167  RH  086%=      5-min Rain = 0
KDC1 101043Z 27006KT 19/17 A3023 RMK A01 T01910167  RH  086%=      5-min Rain = 0
KDC1 101044Z 27006KT 19/17 A3023 RMK A01 T01910166  RH  086%=      5-min Rain = 0
KDC1 101045Z 27006KT 19/17 A3023 RMK A01 T01910166  RH  086%=      5-min Rain = 0
KDC1 101046Z 28006KT 19/17 A3023 RMK A01 T01910166  RH  085%=      5-min Rain = 0
KDC1 101047Z 28006KT 19/17 A3023 RMK A01 T01910166  RH  086%=      5-min Rain = 0
KDC1 101048Z 28006KT 19/17 A3023 RMK A01 T01900167  RH  086%=      5-min Rain = 0
KDC1 101049Z 28006KT 19/17 A3023 RMK A01 T01900167  RH  087%=      5-min Rain = 0
KDC1 101050Z 28006KT 19/17 A3023 RMK A01 T01890167  RH  087%=      5-min Rain = 0
KDC1 101051Z 28006KT 19/17 A3023 RMK A01 T01890168  RH  087%=      5-min Rain = 0
KDC1 101052Z 27006KT 19/17 A3023 RMK A01 T01890168  RH  087%=      5-min Rain = 0
KDC1 101053Z 28006KT 19/17 A3023 RMK A01 T01890168  RH  087%=      5-min Rain = 0
KDC1 101054Z 28007KT 19/17 A3023 RMK A01 T01890168  RH  087%=      5-min Rain = 0
KDC1 101055Z 28007KT 19/17 A3023 RMK A01 T01890168  RH  087%=      5-min Rain = 0
KDC1 101056Z 29007KT 19/17 A3023 RMK A01 T01900168  RH  087%=      5-min Rain = 0
KDC1 101057Z 29007KT 19/17 A3023 RMK A01 T01910168  RH  087%=      5-min Rain = 0
KDC1 101058Z 30007KT 19/17 A3023 RMK A01 T01910168  RH  087%=      5-min Rain = 0
KDC1 101059Z 30006KT 19/17 A3023 RMK A01 T01910168  RH  086%=      5-min Rain = 0
KDC1 101100Z 30006KT 19/17 A3023 RMK A01 T01910168  RH  087%=      5-min Rain = 0
KDC1 101101Z 30006KT 19/17 A3023 RMK A01 T01910168  RH  086%=      5-min Rain = 0
KDC1 101102Z 30005KT 19/17 A3023 RMK A01 T01910168  RH  086%=      5-min Rain = 0
KDC1 101103Z 30004KT 19/17 A3024 RMK A01 T01910168  RH  086%=      5-min Rain = 0
KDC1 101104Z 31002KT 19/17 A3024 RMK A01 T01910168  RH  086%=      5-min Rain = 0
KDC1 101105Z 31002KT 19/17 A3024 RMK A01 T01920168  RH  086%=      5-min Rain = 0
KDC1 101106Z 30005KT 19/17 A3024 RMK A01 T01920168  RH  086%=      5-min Rain = 0
KDC1 101107Z 30005KT 19/17 A3024 RMK A01 T01920169  RH  086%=      5-min Rain = 0
KDC1 101108Z 31003KT 19/17 A3024 RMK A01 T01920169  RH  086%=      5-min Rain = 0
KDC1 101109Z 31002KT 19/17 A3024 RMK A01 T01920168  RH  086%=      5-min Rain = 0
KDC1 101110Z 30003KT 19/17 A3024 RMK A01 T01920169  RH  086%=      5-min Rain = 0
KDC1 101111Z 30002KT 19/17 A3024 RMK A01 T01910169  RH  087%=      5-min Rain = 0
KDC1 101112Z 31003KT 19/17 A3024 RMK A01 T01910169  RH  087%=      5-min Rain = 0
KDC1 101113Z 30005KT 19/17 A3024 RMK A01 T01900169  RH  087%=      5-min Rain = 0
KDC1 101114Z 30004KT 19/17 A3024 RMK A01 T01890169  RH  088%=      5-min Rain = 0
KDC1 101115Z 30004KT 19/17 A3024 RMK A01 T01890169  RH  088%=      5-min Rain = 0
KDC1 101116Z 30003KT 19/17 A3024 RMK A01 T01890169  RH  088%=      5-min Rain = 0
KDC1 101117Z 31004KT 19/17 A3024 RMK A01 T01900169  RH  088%=      5-min Rain = 0
KDC1 101118Z 30005KT 19/17 A3024 RMK A01 T01900169  RH  088%=      5-min Rain = 0
KDC1 101119Z 31005KT 19/17 A3024 RMK A01 T01900169  RH  088%=      5-min Rain = 0
KDC1 101120Z 30005KT 19/17 A3024 RMK A01 T01900169  RH  088%=      5-min Rain = 0
KDC1 101121Z 30004KT 19/17 A3024 RMK A01 T01910169  RH  087%=      5-min Rain = 0
KDC1 101122Z 29004KT 19/17 A3024 RMK A01 T01910169  RH  087%=      5-min Rain = 0
KDC1 101123Z 29004KT 19/17 A3024 RMK A01 T01910169  RH  087%=      5-min Rain = 0
KDC1 101124Z 29004KT 19/17 A3024 RMK A01 T01910169  RH  087%=      5-min Rain = 0
KDC1 101125Z 29004KT 19/17 A3024 RMK A01 T01910169  RH  087%=      5-min Rain = 0
KDC1 101126Z 28004KT 19/17 A3024 RMK A01 T01910169  RH  087%=      5-min Rain = 0
KDC1 101127Z 28004KT 19/17 A3024 RMK A01 T01920170  RH  087%=      5-min Rain = 0
KDC1 101128Z 28004KT 19/17 A3024 RMK A01 T01910170  RH  087%=      5-min Rain = 0
KDC1 101129Z 28004KT 19/17 A3024 RMK A01 T01910170  RH  087%=      5-min Rain = 0
KDC1 101130Z 28004KT 19/17 A3024 RMK A01 T01920170  RH  087%=      5-min Rain = 0
KDC1 101131Z 28004KT 19/17 A3024 RMK A01 T01910170  RH  087%=      5-min Rain = 0
KDC1 101132Z 28005KT 19/17 A3024 RMK A01 T01910169  RH  087%=      5-min Rain = 0
KDC1 101133Z 28005KT 19/17 A3024 RMK A01 T01920169  RH  087%=      5-min Rain = 0
KDC1 101134Z 28005KT 19/17 A3024 RMK A01 T01930169  RH  086%=      5-min Rain = 0
KDC1 101135Z 28005KT 19/17 A3024 RMK A01 T01940169  RH  086%=      5-min Rain = 0
KDC1 101136Z 27005KT 19/17 A3024 RMK A01 T01940169  RH  085%=      5-min Rain = 0
KDC1 101137Z 28005KT 19/17 A3024 RMK A01 T01940169  RH  085%=      5-min Rain = 0
KDC1 101138Z 28004KT 20/17 A3024 RMK A01 T01950169  RH  085%=      5-min Rain = 0
KDC1 101139Z 28003KT 20/17 A3024 RMK A01 T01950169  RH  085%=      5-min Rain = 0
KDC1 101140Z 27003KT 20/17 A3025 RMK A01 T01960169  RH  084%=      5-min Rain = 0
KDC1 101141Z 27003KT 20/17 A3025 RMK A01 T01970169  RH  084%=      5-min Rain = 0
KDC1 101142Z 28003KT 20/17 A3025 RMK A01 T01980169  RH  084%=      5-min Rain = 0
KDC1 101143Z 27003KT 20/17 A3025 RMK A01 T01980169  RH  083%=      5-min Rain = 0
KDC1 101144Z 28003KT 20/17 A3025 RMK A01 T01980170  RH  084%=      5-min Rain = 0
KDC1 101145Z 27003KT 20/17 A3025 RMK A01 T01980170  RH  084%=      5-min Rain = 0
KDC1 101146Z 27003KT 20/17 A3025 RMK A01 T01970169  RH  084%=      5-min Rain = 0
KDC1 101147Z 27003KT 20/17 A3025 RMK A01 T01970169  RH  084%=      5-min Rain = 0
KDC1 101148Z 27003KT 20/17 A3025 RMK A01 T01970169  RH  084%=      5-min Rain = 0
KDC1 101149Z 28003KT 20/17 A3025 RMK A01 T01970170  RH  084%=      5-min Rain = 0
KDC1 101150Z 27003KT 20/17 A3025 RMK A01 T01970169  RH  084%=      5-min Rain = 0
KDC1 101151Z 28004KT 20/17 A3025 RMK A01 T01970170  RH  084%=      5-min Rain = 0
KDC1 101152Z 28004KT 20/17 A3025 RMK A01 T01960170  RH  085%=      5-min Rain = 0
KDC1 101153Z 27004KT 20/17 A3025 RMK A01 T01960169  RH  085%=      5-min Rain = 0
KDC1 101154Z 27004KT 20/17 A3025 RMK A01 T01960170  RH  085%=      5-min Rain = 0
KDC1 101155Z 28004KT 20/17 A3025 RMK A01 T01960169  RH  085%=      5-min Rain = 0
KDC1 101156Z 27004KT 20/17 A3025 RMK A01 T01950169  RH  085%=      5-min Rain = 0
KDC1 101157Z 27004KT 20/17 A3025 RMK A01 T01950169  RH  085%=      5-min Rain = 0
KDC1 101158Z 26004KT 20/17 A3025 RMK A01 T01950170  RH  085%=      5-min Rain = 0
KDC1 101159Z 26005KT 20/17 A3025 RMK A01 T01950170  RH  085%=      5-min Rain = 0
KDC1 101200Z 26005KT 20/17 A3025 RMK A01 T01950169  RH  085%=      5-min Rain = 0
KDC1 101201Z 26005KT 20/17 A3025 RMK A01 T01950169  RH  085%=      5-min Rain = 0
KDC1 101202Z 26005KT 20/17 A3025 RMK A01 T01950169  RH  085%=      5-min Rain = 0
KDC1 101203Z 27005KT 20/17 A3025 RMK A01 T01950170  RH  085%=      5-min Rain = 0
KDC1 101204Z 27006KT 19/17 A3025 RMK A01 T01940170  RH  086%=      5-min Rain = 0
KDC1 101205Z 27007KT 20/17 A3025 RMK A01 T01950170  RH  086%=      5-min Rain = 0
KDC1 101206Z 27007KT 19/17 A3025 RMK A01 T01940171  RH  086%=      5-min Rain = 0
KDC1 101207Z 28006KT 19/17 A3025 RMK A01 T01940171  RH  086%=      5-min Rain = 0
KDC1 101208Z 28006KT 19/17 A3025 RMK A01 T01940171  RH  086%=      5-min Rain = 0
KDC1 101209Z 28006KT 19/17 A3025 RMK A01 T01940171  RH  086%=      5-min Rain = 0
KDC1 101210Z 28006KT 19/17 A3025 RMK A01 T01940171  RH  087%=      5-min Rain = 0
KDC1 101211Z 28005KT 19/17 A3025 RMK A01 T01940171  RH  087%=      5-min Rain = 0
KDC1 101212Z 27005KT 19/17 A3025 RMK A01 T01940171  RH  087%=      5-min Rain = 0
KDC1 101213Z 27005KT 19/17 A3025 RMK A01 T01940171  RH  087%=      5-min Rain = 0
KDC1 101214Z 27005KT 19/17 A3025 RMK A01 T01940171  RH  087%=      5-min Rain = 0
KDC1 101215Z 26004KT 19/17 A3025 RMK A01 T01940171  RH  087%=      5-min Rain = 0
KDC1 101216Z 26004KT 19/17 A3025 RMK A01 T01940171  RH  086%=      5-min Rain = 0
KDC1 101217Z 26004KT 19/17 A3025 RMK A01 T01940171  RH  086%=      5-min Rain = 0
KDC1 101218Z 27005KT 20/17 A3025 RMK A01 T01950171  RH  086%=      5-min Rain = 0
KDC1 101219Z 27005KT 20/17 A3025 RMK A01 T01950170  RH  086%=      5-min Rain = 0
KDC1 101220Z 26004KT 20/17 A3025 RMK A01 T01950171  RH  086%=      5-min Rain = 0
KDC1 101221Z 27004KT 20/17 A3025 RMK A01 T01950170  RH  085%=      5-min Rain = 0
KDC1 101222Z 27005KT 20/17 A3025 RMK A01 T01950170  RH  085%=      5-min Rain = 0
KDC1 101223Z 27005KT 20/17 A3025 RMK A01 T01950171  RH  086%=      5-min Rain = 0
KDC1 101224Z 27005KT 20/17 A3025 RMK A01 T01950171  RH  086%=      5-min Rain = 0
KDC1 101225Z 27005KT 20/17 A3025 RMK A01 T01950172  RH  086%=      5-min Rain = 0
KDC1 101226Z 27005KT 20/17 A3025 RMK A01 T01950172  RH  087%=      5-min Rain = 0
KDC1 101227Z 27004KT 19/17 A3025 RMK A01 T01940171  RH  087%=      5-min Rain = 0
KDC1 101228Z 26004KT 19/17 A3025 RMK A01 T01940172  RH  087%=      5-min Rain = 0
KDC1 101229Z 26003KT 19/17 A3025 RMK A01 T01940172  RH  087%=      5-min Rain = 0
KDC1 101230Z 24003KT 19/17 A3025 RMK A01 T01940171  RH  087%=      5-min Rain = 0
KDC1 101231Z 25003KT 20/17 A3025 RMK A01 T01950171  RH  086%=      5-min Rain = 0
KDC1 101232Z 25004KT 20/17 A3025 RMK A01 T01950171  RH  086%=      5-min Rain = 0
KDC1 101233Z 25004KT 20/17 A3025 RMK A01 T01960171  RH  085%=      5-min Rain = 0
KDC1 101234Z 26004KT 20/17 A3025 RMK A01 T01960171  RH  085%=      5-min Rain = 0
KDC1 101235Z 25004KT 20/17 A3025 RMK A01 T01970171  RH  085%=      5-min Rain = 0
KDC1 101236Z 25004KT 20/17 A3025 RMK A01 T01960172  RH  086%=      5-min Rain = 0
KDC1 101237Z 24004KT 20/17 A3025 RMK A01 T01960172  RH  086%=      5-min Rain = 0
KDC1 101238Z 23003KT 20/17 A3025 RMK A01 T01960172  RH  086%=      5-min Rain = 0
KDC1 101239Z 24003KT 20/17 A3025 RMK A01 T01960173  RH  086%=      5-min Rain = 0
KDC1 101240Z 23003KT 20/17 A3025 RMK A01 T01960173  RH  086%=      5-min Rain = 0
KDC1 101241Z 23003KT 20/17 A3025 RMK A01 T01960173  RH  086%=      5-min Rain = 0
KDC1 101242Z 24002KT 20/17 A3025 RMK A01 T01970173  RH  086%=      5-min Rain = 0
KDC1 101243Z 25002KT 20/17 A3026 RMK A01 T01960173  RH  087%=      5-min Rain = 0
KDC1 101244Z 24003KT 20/17 A3026 RMK A01 T01970174  RH  087%=      5-min Rain = 0
KDC1 101245Z 24003KT 20/17 A3026 RMK A01 T01970174  RH  087%=      5-min Rain = 0
KDC1 101246Z 24003KT 20/17 A3026 RMK A01 T01970174  RH  086%=      5-min Rain = 0
KDC1 101247Z 25003KT 20/17 A3026 RMK A01 T01970173  RH  086%=      5-min Rain = 0
KDC1 101248Z 23002KT 20/17 A3026 RMK A01 T01970173  RH  086%=      5-min Rain = 0
KDC1 101249Z 23003KT 20/17 A3026 RMK A01 T01970173  RH  086%=      5-min Rain = 0
KDC1 101250Z 23003KT 20/17 A3026 RMK A01 T01970173  RH  086%=      5-min Rain = 0
KDC1 101251Z 23002KT 20/17 A3026 RMK A01 T01970173  RH  086%=      5-min Rain = 0
KDC1 101252Z 24002KT 20/17 A3026 RMK A01 T01980173  RH  086%=      5-min Rain = 0
KDC1 101253Z 25003KT 20/17 A3026 RMK A01 T01980173  RH  086%=      5-min Rain = 0
KDC1 101254Z 25003KT 20/17 A3026 RMK A01 T01980172  RH  085%=      5-min Rain = 0
KDC1 101255Z 26003KT 20/17 A3026 RMK A01 T01980172  RH  085%=      5-min Rain = 0
KDC1 101256Z 26003KT 20/17 A3026 RMK A01 T01990172  RH  084%=      5-min Rain = 0
KDC1 101257Z 26003KT 20/17 A3026 RMK A01 T01990171  RH  084%=      5-min Rain = 0
KDC1 101258Z 26003KT 20/17 A3026 RMK A01 T01990171  RH  084%=      5-min Rain = 0
KDC1 101259Z 26003KT 20/17 A3026 RMK A01 T02000172  RH  084%=      5-min Rain = 0
KDC1 101300Z 26002KT 20/17 A3026 RMK A01 T02000172  RH  084%=      5-min Rain = 0
KDC1 101301Z 26003KT 20/17 A3026 RMK A01 T02010172  RH  083%=      5-min Rain = 0
KDC1 101302Z 27003KT 20/17 A3026 RMK A01 T02010173  RH  083%=      5-min Rain = 0
KDC1 101303Z 27003KT 20/17 A3026 RMK A01 T02020173  RH  083%=      5-min Rain = 0
KDC1 101304Z 28003KT 20/17 A3026 RMK A01 T02020173  RH  083%=      5-min Rain = 0
KDC1 101305Z 28004KT 20/17 A3026 RMK A01 T02020174  RH  084%=      5-min Rain = 0
KDC1 101306Z 29003KT 20/17 A3026 RMK A01 T02020174  RH  084%=      5-min Rain = 0
KDC1 101307Z 29003KT 20/18 A3026 RMK A01 T02020175  RH  084%=      5-min Rain = 0
KDC1 101308Z 30003KT 20/18 A3026 RMK A01 T02030176  RH  085%=      5-min Rain = 0
KDC1 101309Z 30003KT 20/18 A3026 RMK A01 T02030177  RH  085%=      5-min Rain = 0
KDC1 101310Z 31004KT 20/18 A3026 RMK A01 T02020177  RH  085%=      5-min Rain = 0
KDC1 101311Z 31004KT 20/18 A3026 RMK A01 T02020177  RH  086%=      5-min Rain = 0
KDC1 101312Z 31004KT 20/18 A3026 RMK A01 T02020178  RH  086%=      5-min Rain = 0
KDC1 101313Z 31004KT 20/18 A3026 RMK A01 T02020178  RH  086%=      5-min Rain = 0
KDC1 101314Z 32004KT 20/18 A3026 RMK A01 T02020178  RH  086%=      5-min Rain = 0
KDC1 101315Z 32004KT 20/18 A3026 RMK A01 T02020178  RH  086%=      5-min Rain = 0
KDC1 101316Z 32004KT 20/18 A3026 RMK A01 T02020178  RH  086%=      5-min Rain = 0
KDC1 101317Z 32004KT 20/18 A3026 RMK A01 T02020176  RH  085%=      5-min Rain = 0
KDC1 101318Z 31004KT 20/18 A3026 RMK A01 T02020175  RH  085%=      5-min Rain = 0
KDC1 101319Z 31004KT 20/18 A3026 RMK A01 T02030175  RH  084%=      5-min Rain = 0
KDC1 101320Z 31004KT 20/17 A3026 RMK A01 T02030174  RH  083%=      5-min Rain = 0
KDC1 101321Z 30004KT 20/17 A3026 RMK A01 T02040174  RH  083%=      5-min Rain = 0
KDC1 101322Z 30004KT 20/17 A3026 RMK A01 T02040174  RH  083%=      5-min Rain = 0
KDC1 101323Z 30004KT 21/17 A3026 RMK A01 T02050174  RH  083%=      5-min Rain = 0
KDC1 101324Z 30004KT 21/18 A3026 RMK A01 T02050175  RH  082%=      5-min Rain = 0
KDC1 101325Z 30003KT 21/18 A3026 RMK A01 T02060175  RH  083%=      5-min Rain = 0
KDC1 101326Z 30002KT 21/18 A3026 RMK A01 T02060176  RH  083%=      5-min Rain = 0
KDC1 101327Z 30003KT 21/18 A3026 RMK A01 T02060176  RH  083%=      5-min Rain = 0
KDC1 101328Z 29003KT 21/18 A3026 RMK A01 T02070176  RH  083%=      5-min Rain = 0
KDC1 101329Z 29003KT 21/18 A3026 RMK A01 T02060176  RH  082%=      5-min Rain = 0
KDC1 101330Z 29003KT 21/18 A3026 RMK A01 T02070175  RH  082%=      5-min Rain = 0
KDC1 101331Z 29003KT 21/18 A3026 RMK A01 T02070175  RH  082%=      5-min Rain = 0
KDC1 101332Z 29003KT 21/18 A3026 RMK A01 T02080175  RH  082%=      5-min Rain = 0
KDC1 101333Z 29003KT 21/18 A3026 RMK A01 T02080176  RH  082%=      5-min Rain = 0
KDC1 101334Z 29003KT 21/18 A3026 RMK A01 T02080176  RH  082%=      5-min Rain = 0
KDC1 101335Z 29003KT 21/18 A3026 RMK A01 T02080176  RH  082%=      5-min Rain = 0
KDC1 101336Z 29003KT 21/18 A3026 RMK A01 T02080177  RH  082%=      5-min Rain = 0
KDC1 101337Z 30003KT 21/18 A3026 RMK A01 T02090178  RH  082%=      5-min Rain = 0
KDC1 101338Z 29003KT 21/18 A3026 RMK A01 T02090178  RH  083%=      5-min Rain = 0
KDC1 101339Z 29003KT 21/18 A3026 RMK A01 T02090179  RH  083%=      5-min Rain = 0
KDC1 101340Z 28003KT 21/18 A3026 RMK A01 T02090179  RH  083%=      5-min Rain = 0
KDC1 101341Z 28003KT 21/18 A3026 RMK A01 T02090179  RH  083%=      5-min Rain = 0
KDC1 101342Z 28003KT 21/18 A3026 RMK A01 T02090179  RH  083%=      5-min Rain = 0
KDC1 101343Z 27003KT 21/18 A3026 RMK A01 T02100179  RH  083%=      5-min Rain = 0
KDC1 101344Z 26003KT 21/18 A3026 RMK A01 T02100179  RH  082%=      5-min Rain = 0
KDC1 101345Z 27003KT 21/18 A3026 RMK A01 T02110178  RH  082%=      5-min Rain = 0
KDC1 101346Z 26003KT 21/18 A3026 RMK A01 T02110178  RH  081%=      5-min Rain = 0
KDC1 101347Z 26003KT 21/18 A3026 RMK A01 T02120177  RH  080%=      5-min Rain = 0
KDC1 101348Z 26003KT 21/18 A3026 RMK A01 T02130176  RH  079%=      5-min Rain = 0
KDC1 101349Z 25003KT 21/18 A3027 RMK A01 T02130176  RH  079%=      5-min Rain = 0
KDC1 101350Z 25003KT 21/18 A3027 RMK A01 T02140175  RH  079%=      5-min Rain = 0
KDC1 101351Z 24003KT 22/18 A3026 RMK A01 T02150176  RH  078%=      5-min Rain = 0
KDC1 101352Z 25003KT 22/18 A3026 RMK A01 T02150177  RH  079%=      5-min Rain = 0
KDC1 101353Z 24003KT 22/18 A3026 RMK A01 T02160179  RH  080%=      5-min Rain = 0
KDC1 101354Z 24003KT 22/18 A3027 RMK A01 T02160180  RH  080%=      5-min Rain = 0
KDC1 101355Z 23003KT 22/18 A3027 RMK A01 T02150180  RH  080%=      5-min Rain = 0
KDC1 101356Z 25003KT 22/18 A3027 RMK A01 T02150179  RH  080%=      5-min Rain = 0
KDC1 101357Z 23002KT 22/18 A3027 RMK A01 T02150179  RH  080%=      5-min Rain = 0
KDC1 101358Z 24003KT 22/18 A3027 RMK A01 T02150180  RH  080%=      5-min Rain = 0
KDC1 101359Z 24003KT 22/18 A3027 RMK A01 T02150178  RH  080%=      5-min Rain = 0
KDC1 101400Z 24003KT 22/18 A3027 RMK A01 T02150178  RH  079%=      5-min Rain = 0
KDC1 101401Z 25003KT 22/18 A3027 RMK A01 T02150178  RH  079%=      5-min Rain = 0
KDC1 101402Z 25003KT 22/18 A3027 RMK A01 T02150177  RH  079%=      5-min Rain = 0
KDC1 101403Z 25003KT 22/18 A3027 RMK A01 T02160177  RH  078%=      5-min Rain = 0
KDC1 101404Z 25004KT 22/18 A3027 RMK A01 T02160176  RH  078%=      5-min Rain = 0
KDC1 101405Z 25003KT 22/18 A3027 RMK A01 T02160176  RH  078%=      5-min Rain = 0
KDC1 101406Z 25004KT 22/18 A3027 RMK A01 T02160177  RH  079%=      5-min Rain = 0
KDC1 101407Z 24004KT 22/18 A3027 RMK A01 T02160177  RH  078%=      5-min Rain = 0
KDC1 101408Z 24003KT 22/18 A3027 RMK A01 T02160177  RH  078%=      5-min Rain = 0
KDC1 101409Z 24004KT 22/18 A3027 RMK A01 T02160176  RH  078%=      5-min Rain = 0
KDC1 101410Z 23003KT 22/18 A3027 RMK A01 T02160175  RH  078%=      5-min Rain = 0
KDC1 101411Z 23003KT 22/17 A3027 RMK A01 T02170174  RH  077%=      5-min Rain = 0
KDC1 101412Z 24003KT 22/17 A3027 RMK A01 T02170174  RH  076%=      5-min Rain = 0
KDC1 101413Z 24003KT 22/17 A3027 RMK A01 T02170174  RH  076%=      5-min Rain = 0
KDC1 101414Z 24003KT 22/17 A3027 RMK A01 T02180174  RH  076%=      5-min Rain = 0
KDC1 101415Z 24003KT 22/18 A3027 RMK A01 T02180175  RH  077%=      5-min Rain = 0
KDC1 101416Z 24003KT 22/18 A3027 RMK A01 T02180176  RH  077%=      5-min Rain = 0
KDC1 101417Z 23004KT 22/18 A3027 RMK A01 T02180176  RH  077%=      5-min Rain = 0
KDC1 101418Z 23003KT 22/18 A3027 RMK A01 T02180176  RH  077%=      5-min Rain = 0
KDC1 101419Z 23003KT 22/18 A3027 RMK A01 T02190176  RH  077%=      5-min Rain = 0
KDC1 101420Z 22003KT 22/18 A3027 RMK A01 T02190176  RH  077%=      5-min Rain = 0
KDC1 101421Z 21003KT 22/18 A3027 RMK A01 T02190177  RH  077%=      5-min Rain = 0
KDC1 101422Z 22003KT 22/18 A3028 RMK A01 T02180176  RH  077%=      5-min Rain = 0
KDC1 101423Z 22003KT 22/17 A3028 RMK A01 T02180174  RH  076%=      5-min Rain = 0
KDC1 101424Z 22002KT 22/17 A3028 RMK A01 T02180174  RH  076%=      5-min Rain = 0
KDC1 101425Z 22002KT 22/17 A3028 RMK A01 T02180174  RH  076%=      5-min Rain = 0
KDC1 101426Z 22003KT 22/17 A3028 RMK A01 T02190174  RH  076%=      5-min Rain = 0
KDC1 101427Z 22004KT 22/17 A3028 RMK A01 T02190173  RH  075%=      5-min Rain = 0
KDC1 101428Z 22003KT 22/17 A3028 RMK A01 T02190173  RH  075%=      5-min Rain = 0
KDC1 101429Z 22002KT 22/17 A3028 RMK A01 T02190174  RH  075%=      5-min Rain = 0
KDC1 101430Z 23002KT 22/17 A3028 RMK A01 T02190174  RH  075%=      5-min Rain = 0
KDC1 101431Z 20002KT 22/17 A3028 RMK A01 T02190174  RH  075%=      5-min Rain = 0
KDC1 101432Z 22004KT 22/17 A3028 RMK A01 T02200173  RH  075%=      5-min Rain = 0
KDC1 101433Z 21003KT 22/17 A3028 RMK A01 T02200173  RH  075%=      5-min Rain = 0
KDC1 101434Z 21003KT 22/17 A3028 RMK A01 T02200173  RH  074%=      5-min Rain = 0
KDC1 101435Z 21002KT 22/17 A3028 RMK A01 T02200173  RH  074%=      5-min Rain = 0
KDC1 101436Z 21002KT 22/17 A3028 RMK A01 T02210173  RH  075%=      5-min Rain = 0
KDC1 101437Z 20003KT 22/17 A3028 RMK A01 T02210173  RH  074%=      5-min Rain = 0
KDC1 101438Z 20004KT 22/17 A3028 RMK A01 T02210172  RH  074%=      5-min Rain = 0
KDC1 101439Z 20004KT 22/17 A3028 RMK A01 T02210171  RH  073%=      5-min Rain = 0
KDC1 101440Z 22003KT 22/17 A3028 RMK A01 T02210171  RH  073%=      5-min Rain = 0
KDC1 101441Z 22005KT 22/17 A3028 RMK A01 T02210171  RH  073%=      5-min Rain = 0
KDC1 101442Z 21004KT 22/17 A3028 RMK A01 T02210170  RH  073%=      5-min Rain = 0
KDC1 101443Z 20003KT 22/17 A3028 RMK A01 T02210171  RH  073%=      5-min Rain = 0
KDC1 101444Z 19004KT 22/17 A3028 RMK A01 T02210171  RH  073%=      5-min Rain = 0
KDC1 101445Z 21002KT 22/17 A3028 RMK A01 T02210171  RH  073%=      5-min Rain = 0
KDC1 101446Z 22003KT 22/17 A3028 RMK A01 T02210171  RH  073%=      5-min Rain = 0
KDC1 101447Z 21002KT 22/17 A3028 RMK A01 T02210171  RH  073%=      5-min Rain = 0
KDC1 101448Z 22002KT 22/17 A3028 RMK A01 T02210172  RH  073%=      5-min Rain = 0
KDC1 101449Z 21004KT 22/17 A3028 RMK A01 T02220172  RH  074%=      5-min Rain = 0
KDC1 101450Z 21004KT 22/17 A3028 RMK A01 T02220171  RH  073%=      5-min Rain = 0
KDC1 101451Z 22004KT 22/17 A3028 RMK A01 T02220171  RH  073%=      5-min Rain = 0
KDC1 101452Z 21003KT 22/17 A3028 RMK A01 T02220170  RH  073%=      5-min Rain = 0
KDC1 101453Z 21004KT 22/17 A3028 RMK A01 T02220171  RH  073%=      5-min Rain = 0
KDC1 101454Z 21004KT 22/17 A3028 RMK A01 T02220171  RH  073%=      5-min Rain = 0
KDC1 101455Z 21002KT 22/17 A3028 RMK A01 T02230171  RH  072%=      5-min Rain = 0
KDC1 101456Z 21003KT 22/17 A3028 RMK A01 T02230170  RH  072%=      5-min Rain = 0
KDC1 101457Z 22003KT 22/17 A3028 RMK A01 T02230169  RH  071%=      5-min Rain = 0
KDC1 101458Z 21003KT 22/17 A3028 RMK A01 T02240170  RH  072%=      5-min Rain = 0
KDC1 101459Z 21003KT 22/17 A3028 RMK A01 T02240170  RH  072%=      5-min Rain = 0
KDC1 101500Z 21003KT 23/17 A3028 RMK A01 T02250170  RH  071%=      5-min Rain = 0
KDC1 101501Z 21003KT 23/17 A3028 RMK A01 T02260171  RH  071%=      5-min Rain = 0
KDC1 101502Z 21001KT 23/17 A3028 RMK A01 T02260171  RH  071%=      5-min Rain = 0
KDC1 101503Z 22003KT 23/17 A3028 RMK A01 T02260170  RH  071%=      5-min Rain = 0
KDC1 101504Z 21003KT 23/17 A3028 RMK A01 T02270170  RH  070%=      5-min Rain = 0
KDC1 101505Z 22003KT 23/17 A3028 RMK A01 T02270169  RH  070%=      5-min Rain = 0
KDC1 101506Z 22002KT 23/17 A3028 RMK A01 T02280170  RH  070%=      5-min Rain = 0
KDC1 101507Z 22003KT 23/17 A3028 RMK A01 T02280170  RH  070%=      5-min Rain = 0
KDC1 101508Z 21003KT 23/17 A3028 RMK A01 T02280170  RH  069%=      5-min Rain = 0
KDC1 101509Z 21003KT 23/17 A3028 RMK A01 T02290170  RH  069%=      5-min Rain = 0
KDC1 101510Z 21002KT 23/17 A3028 RMK A01 T02290170  RH  069%=      5-min Rain = 0
KDC1 101511Z 21002KT 23/17 A3028 RMK A01 T02290170  RH  069%=      5-min Rain = 0
KDC1 101512Z 20003KT 23/17 A3028 RMK A01 T02300171  RH  069%=      5-min Rain = 0
KDC1 101513Z 21002KT 23/17 A3028 RMK A01 T02310171  RH  069%=      5-min Rain = 0
KDC1 101514Z 20002KT 23/17 A3028 RMK A01 T02310171  RH  069%=      5-min Rain = 0
KDC1 101515Z 20002KT 23/17 A3028 RMK A01 T02320171  RH  069%=      5-min Rain = 0
KDC1 101516Z 19002KT 23/17 A3028 RMK A01 T02320172  RH  069%=      5-min Rain = 0
KDC1 101517Z 21003KT 23/17 A3028 RMK A01 T02330173  RH  069%=      5-min Rain = 0
KDC1 101518Z 19002KT 23/17 A3028 RMK A01 T02330173  RH  069%=      5-min Rain = 0
KDC1 101519Z 18003KT 23/17 A3028 RMK A01 T02330173  RH  069%=      5-min Rain = 0
KDC1 101520Z 18004KT 23/17 A3028 RMK A01 T02330173  RH  069%=      5-min Rain = 0
KDC1 101521Z 20005KT 23/17 A3028 RMK A01 T02330172  RH  069%=      5-min Rain = 0
KDC1 101522Z 19003KT 23/17 A3028 RMK A01 T02320173  RH  069%=      5-min Rain = 0
KDC1 101523Z 19004KT 23/17 A3028 RMK A01 T02330173  RH  069%=      5-min Rain = 0
KDC1 101524Z 20002KT 23/17 A3028 RMK A01 T02330172  RH  068%=      5-min Rain = 0
KDC1 101525Z 21003KT 23/17 A3028 RMK A01 T02340173  RH  069%=      5-min Rain = 0
KDC1 101526Z 23004KT 24/17 A3028 RMK A01 T02350172  RH  068%=      5-min Rain = 0
KDC1 101527Z 23003KT 24/17 A3028 RMK A01 T02350169  RH  066%=      5-min Rain = 0
KDC1 101528Z 21003KT 24/17 A3028 RMK A01 T02350169  RH  067%=      5-min Rain = 0
KDC1 101529Z 20003KT 24/17 A3028 RMK A01 T02350170  RH  067%=      5-min Rain = 0
KDC1 101530Z 21004KT 24/17 A3028 RMK A01 T02350170  RH  067%=      5-min Rain = 0
KDC1 101531Z 19003KT 24/17 A3028 RMK A01 T02350169  RH  066%=      5-min Rain = 0
KDC1 101532Z 20005KT 24/17 A3028 RMK A01 T02360169  RH  066%=      5-min Rain = 0
KDC1 101533Z 20005KT 24/17 A3028 RMK A01 T02360169  RH  066%=      5-min Rain = 0
KDC1 101534Z 20005KT 24/17 A3028 RMK A01 T02360168  RH  066%=      5-min Rain = 0
KDC1 101535Z 21005KT 24/17 A3028 RMK A01 T02360168  RH  066%=      5-min Rain = 0
KDC1 101536Z 19003KT 24/17 A3028 RMK A01 T02360169  RH  066%=      5-min Rain = 0
KDC1 101537Z 20005KT 24/17 A3028 RMK A01 T02370169  RH  066%=      5-min Rain = 0
KDC1 101538Z 20004KT 24/17 A3028 RMK A01 T02380169  RH  065%=      5-min Rain = 0
KDC1 101539Z 21003KT 24/17 A3028 RMK A01 T02390169  RH  065%=      5-min Rain = 0
KDC1 101540Z 21003KT 24/17 A3028 RMK A01 T02390169  RH  065%=      5-min Rain = 0
KDC1 101541Z 20002KT 24/17 A3028 RMK A01 T02390170  RH  065%=      5-min Rain = 0
KDC1 101542Z 19006KT 24/17 A3028 RMK A01 T02400170  RH  065%=      5-min Rain = 0
KDC1 101543Z 20004KT 24/17 A3028 RMK A01 T02400169  RH  064%=      5-min Rain = 0
KDC1 101544Z 23004KT 24/17 A3028 RMK A01 T02400169  RH  064%=      5-min Rain = 0
KDC1 101545Z 20004KT 24/17 A3028 RMK A01 T02410169  RH  064%=      5-min Rain = 0
KDC1 101546Z 21002KT 24/17 A3028 RMK A01 T02420170  RH  064%=      5-min Rain = 0
KDC1 101547Z 21004KT 24/17 A3028 RMK A01 T02420170  RH  064%=      5-min Rain = 0
KDC1 101548Z 21002KT 24/17 A3028 RMK A01 T02420170  RH  064%=      5-min Rain = 0
KDC1 101549Z 21004KT 24/17 A3028 RMK A01 T02430170  RH  064%=      5-min Rain = 0
KDC1 101550Z 17004KT 24/17 A3028 RMK A01 T02430170  RH  064%=      5-min Rain = 0
KDC1 101551Z 17004KT 24/17 A3028 RMK A01 T02430169  RH  063%=      5-min Rain = 0
KDC1 101552Z 19004KT 24/17 A3028 RMK A01 T02430169  RH  064%=      5-min Rain = 0
KDC1 101553Z 19004KT 24/17 A3028 RMK A01 T02430172  RH  065%=      5-min Rain = 0
KDC1 101554Z 17004KT 24/17 A3028 RMK A01 T02440174  RH  065%=      5-min Rain = 0
KDC1 101555Z 19005KT 25/17 A3028 RMK A01 T02450174  RH  065%=      5-min Rain = 0
KDC1 101556Z 21006KT 24/17 A3028 RMK A01 T02440174  RH  065%=      5-min Rain = 0
KDC1 101557Z 18005KT 24/18 A3028 RMK A01 T02430175  RH  066%=      5-min Rain = 0
KDC1 101558Z 17005KT 24/18 A3028 RMK A01 T02430175  RH  066%=      5-min Rain = 0
KDC1 101559Z 17006KT 24/18 A3028 RMK A01 T02430175  RH  066%=      5-min Rain = 0
KDC1 101600Z 19006KT 24/18 A3028 RMK A01 T02440176  RH  066%=      5-min Rain = 0
KDC1 101601Z 18006KT 25/18 A3028 RMK A01 T02450175  RH  065%=      5-min Rain = 0
KDC1 101602Z 19007KT 25/17 A3028 RMK A01 T02450174  RH  065%=      5-min Rain = 0
KDC1 101603Z 17005KT 24/17 A3028 RMK A01 T02430173  RH  065%=      5-min Rain = 0
KDC1 101604Z 19006KT 24/17 A3028 RMK A01 T02440174  RH  065%=      5-min Rain = 0
KDC1 101605Z 18006KT 25/17 A3028 RMK A01 T02450173  RH  064%=      5-min Rain = 0
KDC1 101606Z 20005KT 25/17 A3028 RMK A01 T02450174  RH  064%=      5-min Rain = 0
KDC1 101607Z 19004KT 25/18 A3028 RMK A01 T02450175  RH  065%=      5-min Rain = 0
KDC1 101608Z 19006KT 25/18 A3028 RMK A01 T02460176  RH  065%=      5-min Rain = 0
KDC1 101609Z 20004KT 25/18 A3028 RMK A01 T02470175  RH  064%=      5-min Rain = 0
KDC1 101610Z 20005KT 25/18 A3028 RMK A01 T02490175  RH  063%=      5-min Rain = 0
KDC1 101611Z 18005KT 25/17 A3028 RMK A01 T02500173  RH  062%=      5-min Rain = 0
KDC1 101612Z 18005KT 25/17 A3028 RMK A01 T02500172  RH  062%=      5-min Rain = 0
KDC1 101613Z 19006KT 25/17 A3027 RMK A01 T02490171  RH  062%=      5-min Rain = 0
KDC1 101614Z 19008KT 25/17 A3027 RMK A01 T02480173  RH  063%=      5-min Rain = 0
KDC1 101615Z 20007KT 25/17 A3027 RMK A01 T02480173  RH  063%=      5-min Rain = 0
KDC1 101616Z 19004KT 25/17 A3027 RMK A01 T02480172  RH  063%=      5-min Rain = 0
KDC1 101617Z 18005KT 25/17 A3027 RMK A01 T02500173  RH  062%=      5-min Rain = 0
KDC1 101618Z 17005KT 25/17 A3027 RMK A01 T02520171  RH  061%=      5-min Rain = 0
KDC1 101619Z 19007KT 25/17 A3027 RMK A01 T02530172  RH  061%=      5-min Rain = 0
KDC1 101620Z 19006KT 25/17 A3027 RMK A01 T02540173  RH  061%=      5-min Rain = 0
KDC1 101621Z 17004KT 25/17 A3027 RMK A01 T02520172  RH  061%=      5-min Rain = 0
KDC1 101622Z 18002KT 25/17 A3027 RMK A01 T02520173  RH  061%=      5-min Rain = 0
KDC1 101623Z 21003KT 26/17 A3027 RMK A01 T02550174  RH  061%=      5-min Rain = 0
KDC1 101624Z 19007KT 26/17 A3027 RMK A01 T02570173  RH  060%=      5-min Rain = 0
KDC1 101625Z 17005KT 26/17 A3027 RMK A01 T02560172  RH  060%=      5-min Rain = 0
KDC1 101626Z 19006KT 26/17 A3027 RMK A01 T02550172  RH  060%=      5-min Rain = 0
KDC1 101627Z 23005KT 26/17 A3027 RMK A01 T02550171  RH  059%=      5-min Rain = 0
KDC1 101628Z 23002KT 25/17 A3027 RMK A01 T02540171  RH  060%=      5-min Rain = 0
KDC1 101629Z 17003KT 25/17 A3027 RMK A01 T02530171  RH  061%=      5-min Rain = 0
KDC1 101630Z 20006KT 26/17 A3027 RMK A01 T02550172  RH  060%=      5-min Rain = 0
KDC1 101631Z 19003KT 26/17 A3027 RMK A01 T02560170  RH  059%=      5-min Rain = 0
KDC1 101632Z 17002KT 26/17 A3027 RMK A01 T02550171  RH  059%=      5-min Rain = 0
KDC1 101633Z 15004KT 26/17 A3027 RMK A01 T02550170  RH  059%=      5-min Rain = 0
KDC1 101634Z 13006KT 26/17 A3027 RMK A01 T02570173  RH  060%=      5-min Rain = 0
KDC1 101635Z 13007KT 26/17 A3027 RMK A01 T02560172  RH  060%=      5-min Rain = 0
KDC1 101636Z 12006KT 26/17 A3027 RMK A01 T02560171  RH  060%=      5-min Rain = 0
KDC1 101637Z 13004KT 26/17 A3027 RMK A01 T02560172  RH  060%=      5-min Rain = 0
KDC1 101638Z 16004KT 26/17 A3027 RMK A01 T02580173  RH  060%=      5-min Rain = 0
KDC1 101639Z 20005KT 26/18 A3027 RMK A01 T02610175  RH  059%=      5-min Rain = 0
KDC1 101640Z 19004KT 26/18 A3027 RMK A01 T02620175  RH  059%=      5-min Rain = 0
KDC1 101641Z 19004KT 26/18 A3027 RMK A01 T02630175  RH  058%=      5-min Rain = 0
KDC1 101642Z 19005KT 26/17 A3027 RMK A01 T02640173  RH  057%=      5-min Rain = 0
KDC1 101643Z 16005KT 26/17 A3027 RMK A01 T02630172  RH  057%=      5-min Rain = 0
KDC1 101644Z 12004KT 26/17 A3027 RMK A01 T02630171  RH  057%=      5-min Rain = 0
KDC1 101645Z 12005KT 26/17 A3027 RMK A01 T02620172  RH  058%=      5-min Rain = 0
KDC1 101646Z 23005G10KT 27/17 A3027 RMK A01 T02650173  RH  057%=      5-min Rain = 0
KDC1 101647Z 20004KT 27/17 A3027 RMK A01 T02670173  RH  056%=      5-min Rain = 0
KDC1 101648Z 19005KT 27/17 A3027 RMK A01 T02670170  RH  055%=      5-min Rain = 0
KDC1 101649Z 19004KT 27/17 A3027 RMK A01 T02650171  RH  056%=      5-min Rain = 0
KDC1 101650Z 19003KT 27/17 A3027 RMK A01 T02660171  RH  056%=      5-min Rain = 0
KDC1 101651Z 20002KT 27/17 A3027 RMK A01 T02680170  RH  055%=      5-min Rain = 0
KDC1 101652Z 20002KT 27/17 A3027 RMK A01 T02690168  RH  054%=      5-min Rain = 0
KDC1 101653Z 24003KT 27/17 A3027 RMK A01 T02690169  RH  054%=      5-min Rain = 0
KDC1 101654Z 24004KT 27/17 A3027 RMK A01 T02690169  RH  054%=      5-min Rain = 0
KDC1 101655Z 24003KT 27/17 A3027 RMK A01 T02650169  RH  056%=      5-min Rain = 0
KDC1 101656Z 17002KT 26/17 A3027 RMK A01 T02620170  RH  057%=      5-min Rain = 0
KDC1 101657Z 19001KT 26/17 A3027 RMK A01 T02610169  RH  057%=      5-min Rain = 0
KDC1 101658Z 18001KT 26/17 A3027 RMK A01 T02610170  RH  057%=      5-min Rain = 0
KDC1 101659Z 18003KT 26/17 A3027 RMK A01 T02640172  RH  057%=      5-min Rain = 0
KDC1 101700Z 16005KT 27/17 A3027 RMK A01 T02690174  RH  056%=      5-min Rain = 0
KDC1 101701Z 18009KT 27/17 A3027 RMK A01 T02730173  RH  054%=      5-min Rain = 0
KDC1 101702Z 19006KT 27/17 A3027 RMK A01 T02730172  RH  054%=      5-min Rain = 0
KDC1 101703Z 16007KT 27/17 A3027 RMK A01 T02710173  RH  055%=      5-min Rain = 0
KDC1 101704Z 15009KT 27/18 A3027 RMK A01 T02730175  RH  055%=      5-min Rain = 0
KDC1 101705Z 15008KT 27/17 A3027 RMK A01 T02740172  RH  054%=      5-min Rain = 0
KDC1 101706Z 14004KT 27/17 A3027 RMK A01 T02710168  RH  053%=      5-min Rain = 0
KDC1 101707Z 15005KT 27/17 A3027 RMK A01 T02670169  RH  055%=      5-min Rain = 0
KDC1 101708Z 18005KT 27/17 A3027 RMK A01 T02670170  RH  055%=      5-min Rain = 0
KDC1 101709Z 17006KT 27/17 A3027 RMK A01 T02700168  RH  054%=      5-min Rain = 0
KDC1 101710Z 19003KT 27/17 A3027 RMK A01 T02710168  RH  053%=      5-min Rain = 0
KDC1 101711Z 20005KT 27/17 A3026 RMK A01 T02710169  RH  054%=      5-min Rain = 0
KDC1 101712Z 18007KT 27/17 A3026 RMK A01 T02720169  RH  053%=      5-min Rain = 0
KDC1 101713Z 17005KT 27/17 A3026 RMK A01 T02710168  RH  053%=      5-min Rain = 0
KDC1 101714Z 16007KT 27/17 A3026 RMK A01 T02710167  RH  053%=      5-min Rain = 0
KDC1 101715Z 16007KT 27/17 A3026 RMK A01 T02710168  RH  053%=      5-min Rain = 0
KDC1 101716Z 16006KT 27/17 A3026 RMK A01 T02720167  RH  053%=      5-min Rain = 0
KDC1 101717Z 18003KT 27/17 A3026 RMK A01 T02710165  RH  052%=      5-min Rain = 0
KDC1 101718Z 16005KT 27/17 A3026 RMK A01 T02690167  RH  053%=      5-min Rain = 0
KDC1 101719Z 15005KT 27/17 A3026 RMK A01 T02700168  RH  053%=      5-min Rain = 0
KDC1 101720Z 14007KT 27/17 A3026 RMK A01 T02720169  RH  053%=      5-min Rain = 0
KDC1 101721Z 13007KT 27/17 A3026 RMK A01 T02720168  RH  053%=      5-min Rain = 0
KDC1 101722Z 12004KT 27/16 A3026 RMK A01 T02700164  RH  052%=      5-min Rain = 0
KDC1 101723Z 12004KT 27/17 A3026 RMK A01 T02690166  RH  053%=      5-min Rain = 0
KDC1 101724Z 13006KT 27/17 A3026 RMK A01 T02700166  RH  053%=      5-min Rain = 0
KDC1 101725Z 13004KT 27/16 A3026 RMK A01 T02700163  RH  052%=      5-min Rain = 0
KDC1 101726Z 11004KT 27/16 A3026 RMK A01 T02690162  RH  052%=      5-min Rain = 0
KDC1 101727Z 10005KT 27/16 A3025 RMK A01 T02700160  RH  051%=      5-min Rain = 0
KDC1 101728Z 10004KT 27/16 A3025 RMK A01 T02710162  RH  051%=      5-min Rain = 0
KDC1 101729Z 07004KT 27/17 A3025 RMK A01 T02700165  RH  053%=      5-min Rain = 0
KDC1 101730Z 08003KT 27/17 A3025 RMK A01 T02690165  RH  053%=      5-min Rain = 0
KDC1 101731Z 07003KT 27/17 A3025 RMK A01 T02690165  RH  053%=      5-min Rain = 0
KDC1 101732Z 08004KT 27/17 A3025 RMK A01 T02710166  RH  052%=      5-min Rain = 0
KDC1 101733Z 12008KT 27/16 A3025 RMK A01 T02720164  RH  052%=      5-min Rain = 0
KDC1 101734Z 12005KT 27/16 A3025 RMK A01 T02720162  RH  051%=      5-min Rain = 0
KDC1 101735Z 13002KT 27/16 A3025 RMK A01 T02710163  RH  051%=      5-min Rain = 0
KDC1 101736Z 16002KT 27/16 A3025 RMK A01 T02720163  RH  052%=      5-min Rain = 0
KDC1 101737Z 15000KT 27/17 A3025 RMK A01 T02730165  RH  052%=      5-min Rain = 0
KDC1 101738Z 00000KT 28/17 A3025 RMK A01 T02750167  RH  052%=      5-min Rain = 0
KDC1 101739Z 12004KT 28/17 A3025 RMK A01 T02790168  RH  051%=      5-min Rain = 0
KDC1 101740Z 12008KT 28/17 A3025 RMK A01 T02820165  RH  049%=      5-min Rain = 0
KDC1 101741Z 14007KT 28/17 A3025 RMK A01 T02820165  RH  049%=      5-min Rain = 0
KDC1 101742Z 12004KT 28/16 A3025 RMK A01 T02800162  RH  049%=      5-min Rain = 0
KDC1 101743Z 11003KT 28/16 A3025 RMK A01 T02780159  RH  048%=      5-min Rain = 0
KDC1 101744Z 11003KT 28/16 A3025 RMK A01 T02770158  RH  048%=      5-min Rain = 0
KDC1 101745Z 12003KT 28/16 A3024 RMK A01 T02750159  RH  049%=      5-min Rain = 0
KDC1 101746Z 12003KT 28/16 A3024 RMK A01 T02780160  RH  049%=      5-min Rain = 0
KDC1 101747Z 10002KT 28/16 A3024 RMK A01 T02790160  RH  048%=      5-min Rain = 0
KDC1 101748Z 11003KT 28/16 A3024 RMK A01 T02800160  RH  048%=      5-min Rain = 0
KDC1 101749Z 13004KT 28/16 A3024 RMK A01 T02780158  RH  048%=      5-min Rain = 0
KDC1 101750Z 07006KT 28/16 A3024 RMK A01 T02780157  RH  048%=      5-min Rain = 0
KDC1 101751Z 06005KT 28/16 A3024 RMK A01 T02800156  RH  047%=      5-min Rain = 0
KDC1 101752Z 02004KT 28/16 A3024 RMK A01 T02790157  RH  047%=      5-min Rain = 0
KDC1 101753Z 35004KT 28/16 A3024 RMK A01 T02770159  RH  049%=      5-min Rain = 0
KDC1 101754Z 02002KT 28/16 A3024 RMK A01 T02770157  RH  048%=      5-min Rain = 0
KDC1 101755Z 02004KT 28/16 A3024 RMK A01 T02780158  RH  048%=      5-min Rain = 0
KDC1 101756Z 03004KT 28/16 A3024 RMK A01 T02810158  RH  047%=      5-min Rain = 0
KDC1 101757Z 06004KT 28/16 A3024 RMK A01 T02820156  RH  046%=      5-min Rain = 0
KDC1 101758Z 06004KT 28/16 A3024 RMK A01 T02840155  RH  045%=      5-min Rain = 0
KDC1 101759Z 06003KT 29/16 A3024 RMK A01 T02850156  RH  045%=      5-min Rain = 0
KDC1 101800Z 08003KT 28/16 A3024 RMK A01 T02820155  RH  046%=      5-min Rain = 0
KDC1 101801Z 10003KT 28/16 A3024 RMK A01 T02800155  RH  047%=      5-min Rain = 0
KDC1 101802Z 12005KT 28/16 A3024 RMK A01 T02790156  RH  047%=      5-min Rain = 0
KDC1 101803Z 10005KT 28/16 A3024 RMK A01 T02780155  RH  047%=      5-min Rain = 0
KDC1 101804Z 12005KT 28/16 A3024 RMK A01 T02780155  RH  047%=      5-min Rain = 0
KDC1 101805Z 12005KT 28/16 A3024 RMK A01 T02780155  RH  047%=      5-min Rain = 0
KDC1 101806Z 09002KT 28/15 A3024 RMK A01 T02780154  RH  047%=      5-min Rain = 0
KDC1 101807Z 02001KT 28/15 A3024 RMK A01 T02780153  RH  047%=      5-min Rain = 0
KDC1 101808Z 06002KT 28/15 A3023 RMK A01 T02780153  RH  047%=      5-min Rain = 0
KDC1 101809Z 08002KT 28/15 A3023 RMK A01 T02790151  RH  046%=      5-min Rain = 0
KDC1 101810Z 08003KT 28/15 A3023 RMK A01 T02790151  RH  046%=      5-min Rain = 0
KDC1 101811Z 09006KT 28/15 A3023 RMK A01 T02790154  RH  046%=      5-min Rain = 0
KDC1 101812Z 07005KT 28/16 A3023 RMK A01 T02790155  RH  047%=      5-min Rain = 0
KDC1 101813Z 06004KT 28/16 A3023 RMK A01 T02780155  RH  047%=      5-min Rain = 0
KDC1 101814Z 06004KT 28/16 A3023 RMK A01 T02770156  RH  047%=      5-min Rain = 0
KDC1 101815Z 09005KT 28/16 A3023 RMK A01 T02770155  RH  047%=      5-min Rain = 0
KDC1 101816Z 07004KT 28/15 A3023 RMK A01 T02760154  RH  047%=      5-min Rain = 0
KDC1 101817Z 19001KT 28/15 A3023 RMK A01 T02760154  RH  048%=      5-min Rain = 0
KDC1 101818Z 18003KT 28/16 A3023 RMK A01 T02760155  RH  048%=      5-min Rain = 0
KDC1 101819Z 18004KT 28/16 A3023 RMK A01 T02770156  RH  047%=      5-min Rain = 0
KDC1 101820Z 16005KT 28/16 A3023 RMK A01 T02790155  RH  047%=      5-min Rain = 0
KDC1 101821Z 17003KT 28/16 A3023 RMK A01 T02800155  RH  047%=      5-min Rain = 0
KDC1 101822Z 20002KT 28/15 A3023 RMK A01 T02790154  RH  046%=      5-min Rain = 0
KDC1 101823Z 21002KT 28/15 A3023 RMK A01 T02790154  RH  047%=      5-min Rain = 0
KDC1 101824Z 21003KT 28/16 A3023 RMK A01 T02790155  RH  047%=      5-min Rain = 0
KDC1 101825Z 21003KT 28/15 A3023 RMK A01 T02810154  RH  046%=      5-min Rain = 0
KDC1 101826Z 18003KT 28/15 A3023 RMK A01 T02810154  RH  046%=      5-min Rain = 0
KDC1 101827Z 17005KT 28/15 A3023 RMK A01 T02810154  RH  046%=      5-min Rain = 0
KDC1 101828Z 15007KT 28/15 A3023 RMK A01 T02820153  RH  045%=      5-min Rain = 0
KDC1 101829Z 16004KT 28/15 A3023 RMK A01 T02820152  RH  045%=      5-min Rain = 0
KDC1 101830Z 18003KT 28/15 A3023 RMK A01 T02810150  RH  045%=      5-min Rain = 0
KDC1 101831Z 18003KT 28/15 A3023 RMK A01 T02810150  RH  045%=      5-min Rain = 0
KDC1 101832Z 16002KT 28/15 A3023 RMK A01 T02820151  RH  045%=      5-min Rain = 0
KDC1 101833Z 13001KT 28/15 A3023 RMK A01 T02830152  RH  045%=      5-min Rain = 0
KDC1 101834Z 17004KT 29/16 A3023 RMK A01 T02850155  RH  045%=      5-min Rain = 0
KDC1 101835Z 17004KT 29/16 A3023 RMK A01 T02890155  RH  044%=      5-min Rain = 0
KDC1 101836Z 17003KT 29/15 A3023 RMK A01 T02880154  RH  044%=      5-min Rain = 0
KDC1 101837Z 17005KT 29/15 A3022 RMK A01 T02890154  RH  044%=      5-min Rain = 0
KDC1 101838Z 20004KT 29/15 A3022 RMK A01 T02880153  RH  044%=      5-min Rain = 0
KDC1 101839Z 19005KT 29/15 A3022 RMK A01 T02850154  RH  045%=      5-min Rain = 0
KDC1 101840Z 17005KT 29/16 A3022 RMK A01 T02850155  RH  045%=      5-min Rain = 0
KDC1 101841Z 17005KT 29/16 A3022 RMK A01 T02870155  RH  045%=      5-min Rain = 0
KDC1 101842Z 18004KT 29/15 A3022 RMK A01 T02860154  RH  045%=      5-min Rain = 0
KDC1 101843Z 20003KT 29/16 A3022 RMK A01 T02850155  RH  045%=      5-min Rain = 0
KDC1 101844Z 19004KT 29/16 A3022 RMK A01 T02860155  RH  045%=      5-min Rain = 0
KDC1 101845Z 16004KT 29/15 A3022 RMK A01 T02870153  RH  044%=      5-min Rain = 0
KDC1 101846Z 14004KT 29/15 A3022 RMK A01 T02870153  RH  044%=      5-min Rain = 0
KDC1 101847Z 06002KT 29/15 A3022 RMK A01 T02860153  RH  044%=      5-min Rain = 0
KDC1 101848Z 10005KT 29/15 A3022 RMK A01 T02860153  RH  044%=      5-min Rain = 0
KDC1 101849Z 13003KT 29/15 A3022 RMK A01 T02890151  RH  043%=      5-min Rain = 0
KDC1 101850Z 10002KT 29/15 A3022 RMK A01 T02880151  RH  043%=      5-min Rain = 0
KDC1 101851Z 04002KT 29/15 A3021 RMK A01 T02870151  RH  044%=      5-min Rain = 0
KDC1 101852Z 04005KT 29/15 A3021 RMK A01 T02880152  RH  044%=      5-min Rain = 0
KDC1 101853Z 04005KT 29/15 A3021 RMK A01 T02870153  RH  044%=      5-min Rain = 0
KDC1 101854Z 02005KT 29/15 A3021 RMK A01 T02870153  RH  044%=      5-min Rain = 0
KDC1 101855Z 02004KT 29/15 A3021 RMK A01 T02880154  RH  044%=      5-min Rain = 0
KDC1 101856Z 03003KT 29/15 A3021 RMK A01 T02870154  RH  044%=      5-min Rain = 0
KDC1 101857Z 06004KT 29/15 A3021 RMK A01 T02880153  RH  044%=      5-min Rain = 0
KDC1 101858Z 10006KT 29/15 A3021 RMK A01 T02900154  RH  044%=      5-min Rain = 0
KDC1 101859Z 11006KT 29/15 A3021 RMK A01 T02920154  RH  043%=      5-min Rain = 0
KDC1 101900Z 08004KT 29/16 A3021 RMK A01 T02900155  RH  044%=      5-min Rain = 0
KDC1 101901Z 08005KT 29/16 A3021 RMK A01 T02900155  RH  044%=      5-min Rain = 0
KDC1 101902Z 11005KT 29/16 A3021 RMK A01 T02920155  RH  043%=      5-min Rain = 0
KDC1 101903Z 11004KT 29/16 A3021 RMK A01 T02920156  RH  044%=      5-min Rain = 0
KDC1 101904Z 12005KT 29/16 A3021 RMK A01 T02900155  RH  044%=      5-min Rain = 0
KDC1 101905Z 13005KT 29/15 A3021 RMK A01 T02900154  RH  044%=      5-min Rain = 0
KDC1 101906Z 13004KT 29/15 A3021 RMK A01 T02900153  RH  043%=      5-min Rain = 0
KDC1 101907Z 12002KT 29/15 A3021 RMK A01 T02880153  RH  044%=      5-min Rain = 0
KDC1 101908Z 10001KT 29/15 A302 RMK A01 T02880154  RH  044%=      5-min Rain = 0
KDC1 101909Z 15006KT 29/15 A302 RMK A01 T02900154  RH  044%=      5-min Rain = 0
KDC1 101910Z 15009KT 29/15 A302 RMK A01 T02920154  RH  043%=      5-min Rain = 0
KDC1 101911Z 16006KT 29/15 A302 RMK A01 T02910152  RH  043%=      5-min Rain = 0
KDC1 101912Z 12005KT 29/15 A302 RMK A01 T02900151  RH  043%=      5-min Rain = 0
KDC1 101913Z 12008KT 29/15 A302 RMK A01 T02910153  RH  043%=      5-min Rain = 0
KDC1 101914Z 12007KT 29/15 A302 RMK A01 T02930150  RH  042%=      5-min Rain = 0
KDC1 101915Z 14005KT 29/15 A302 RMK A01 T02930149  RH  042%=      5-min Rain = 0
KDC1 101916Z 11003KT 29/15 A302 RMK A01 T02920149  RH  042%=      5-min Rain = 0
KDC1 101917Z 08004KT 29/15 A302 RMK A01 T02920148  RH  042%=      5-min Rain = 0
KDC1 101918Z 09001KT 29/15 A302 RMK A01 T02920148  RH  041%=      5-min Rain = 0
KDC1 101919Z 15002KT 29/15 A302 RMK A01 T02930148  RH  041%=      5-min Rain = 0
KDC1 101920Z 15005KT 30/15 A302 RMK A01 T02950151  RH  041%=      5-min Rain = 0
KDC1 101921Z 18004KT 30/15 A302 RMK A01 T02970150  RH  041%=      5-min Rain = 0
KDC1 101922Z 17006KT 30/15 A302 RMK A01 T02970149  RH  041%=      5-min Rain = 0
KDC1 101923Z 17006KT 30/15 A302 RMK A01 T02980150  RH  041%=      5-min Rain = 0
KDC1 101924Z 17005KT 30/15 A302 RMK A01 T02990151  RH  041%=      5-min Rain = 0
KDC1 101925Z 15004KT 30/15 A302 RMK A01 T02960149  RH  041%=      5-min Rain = 0
KDC1 101926Z 17002KT 29/15 A302 RMK A01 T02940149  RH  041%=      5-min Rain = 0
KDC1 101927Z 15005KT 29/15 A302 RMK A01 T02940151  RH  042%=      5-min Rain = 0
KDC1 101928Z 15003KT 30/15 A302 RMK A01 T02950152  RH  042%=      5-min Rain = 0
KDC1 101929Z 15004KT 30/15 A302 RMK A01 T02960153  RH  042%=      5-min Rain = 0
KDC1 101930Z 15004KT 30/15 A302 RMK A01 T02970153  RH  042%=      5-min Rain = 0
KDC1 101931Z 15001KT 30/15 A302 RMK A01 T02970153  RH  042%=      5-min Rain = 0
KDC1 101932Z 17003KT 30/15 A302 RMK A01 T02950152  RH  042%=      5-min Rain = 0
KDC1 101933Z 15002KT 29/15 A302 RMK A01 T02940153  RH  042%=      5-min Rain = 0
KDC1 101934Z 15001KT 30/15 A302 RMK A01 T02960154  RH  042%=      5-min Rain = 0
KDC1 101935Z 19002KT 30/16 A302 RMK A01 T02980156  RH  042%=      5-min Rain = 0
KDC1 101936Z 16003KT 30/16 A3019 RMK A01 T03010157  RH  042%=      5-min Rain = 0
KDC1 101937Z 19003KT 30/15 A3019 RMK A01 T03020154  RH  041%=      5-min Rain = 0
KDC1 101938Z 21004KT 30/15 A3019 RMK A01 T03010153  RH  041%=      5-min Rain = 0
KDC1 101939Z 22003KT 30/15 A3019 RMK A01 T03000154  RH  041%=      5-min Rain = 0
KDC1 101940Z 19001KT 30/15 A3019 RMK A01 T02980153  RH  041%=      5-min Rain = 0
KDC1 101941Z 18004KT 30/15 A3019 RMK A01 T02980153  RH  041%=      5-min Rain = 0
KDC1 101942Z 17006KT 30/15 A3019 RMK A01 T03010153  RH  041%=      5-min Rain = 0
KDC1 101943Z 18002KT 30/15 A3019 RMK A01 T03020151  RH  040%=      5-min Rain = 0
KDC1 101944Z 14002KT 30/15 A3019 RMK A01 T03020151  RH  040%=      5-min Rain = 0
KDC1 101945Z 12002KT 30/15 A3019 RMK A01 T03020151  RH  040%=      5-min Rain = 0
KDC1 101946Z 16001KT 30/15 A3019 RMK A01 T03000151  RH  040%=      5-min Rain = 0
KDC1 101947Z 22000KT 30/15 A3019 RMK A01 T03000151  RH  040%=      5-min Rain = 0
KDC1 101948Z 15000KT 30/15 A3019 RMK A01 T03010151  RH  040%=      5-min Rain = 0
KDC1 101949Z 15002KT 30/15 A3019 RMK A01 T03030153  RH  040%=      5-min Rain = 0
KDC1 101950Z 18006KT 30/15 A3019 RMK A01 T03030153  RH  040%=      5-min Rain = 0
KDC1 101951Z 16007KT 30/15 A3019 RMK A01 T03010152  RH  040%=      5-min Rain = 0
KDC1 101952Z 16005KT 30/15 A3019 RMK A01 T02990152  RH  041%=      5-min Rain = 0
KDC1 101953Z 16003KT 30/15 A3019 RMK A01 T02970151  RH  041%=      5-min Rain = 0
KDC1 101954Z 19002KT 29/15 A3019 RMK A01 T02940151  RH  042%=      5-min Rain = 0
KDC1 101955Z 17002KT 29/15 A3019 RMK A01 T02930152  RH  042%=      5-min Rain = 0
KDC1 101956Z 16002KT 29/15 A3019 RMK A01 T02930151  RH  042%=      5-min Rain = 0
KDC1 101957Z 15002KT 30/15 A3019 RMK A01 T02950151  RH  042%=      5-min Rain = 0
KDC1 101958Z 15006KT 30/15 A3019 RMK A01 T02980151  RH  041%=      5-min Rain = 0
KDC1 101959Z 14005KT 30/15 A3019 RMK A01 T02980149  RH  040%=      5-min Rain = 0
KDC1 102000Z 13005KT 30/15 A3018 RMK A01 T02980150  RH  041%=      5-min Rain = 0
KDC1 102001Z 11003KT 30/15 A3018 RMK A01 T02970149  RH  041%=      5-min Rain = 0
KDC1 102002Z 07001KT 30/15 A3018 RMK A01 T02960150  RH  041%=      5-min Rain = 0
KDC1 102003Z 12005KT 30/15 A3018 RMK A01 T02980151  RH  041%=      5-min Rain = 0
KDC1 102004Z 12006KT 30/15 A3018 RMK A01 T02990154  RH  041%=      5-min Rain = 0
KDC1 102005Z 12003KT 30/15 A3018 RMK A01 T02990152  RH  041%=      5-min Rain = 0
KDC1 102006Z 14006KT 30/15 A3018 RMK A01 T03000154  RH  041%=      5-min Rain = 0
KDC1 102007Z 16006KT 30/16 A3018 RMK A01 T03010157  RH  042%=      5-min Rain = 0
KDC1 102008Z 16008KT 31/16 A3018 RMK A01 T03060157  RH  040%=      5-min Rain = 0
KDC1 102009Z 17007KT 31/15 A3018 RMK A01 T03080153  RH  039%=      5-min Rain = 0
KDC1 102010Z 19006KT 31/15 A3018 RMK A01 T03070152  RH  039%=      5-min Rain = 0
KDC1 102011Z 20003KT 30/15 A3018 RMK A01 T03030151  RH  040%=      5-min Rain = 0
KDC1 102012Z 20002KT 30/15 A3018 RMK A01 T03010151  RH  040%=      5-min Rain = 0
KDC1 102013Z 16003KT 30/15 A3018 RMK A01 T03010151  RH  040%=      5-min Rain = 0
KDC1 102014Z 16004KT 30/15 A3018 RMK A01 T03020151  RH  040%=      5-min Rain = 0
KDC1 102015Z 15004KT 30/15 A3018 RMK A01 T03030153  RH  040%=      5-min Rain = 0
KDC1 102016Z 13005KT 31/16 A3018 RMK A01 T03050155  RH  040%=      5-min Rain = 0
KDC1 102017Z 13003KT 31/15 A3018 RMK A01 T03090152  RH  039%=      5-min Rain = 0
KDC1 102018Z 18003KT 31/16 A3018 RMK A01 T03090155  RH  039%=      5-min Rain = 0
KDC1 102019Z 13004KT 31/16 A3018 RMK A01 T03100155  RH  039%=      5-min Rain = 0
KDC1 102020Z 16004KT 31/16 A3017 RMK A01 T03110158  RH  040%=      5-min Rain = 0
KDC1 102021Z 14005KT 31/16 A3017 RMK A01 T03120157  RH  039%=      5-min Rain = 0
KDC1 102022Z 13007KT 31/15 A3017 RMK A01 T03140154  RH  038%=      5-min Rain = 0
KDC1 102023Z 12004KT 31/15 A3017 RMK A01 T03070149  RH  038%=      5-min Rain = 0
KDC1 102024Z 12007KT 30/15 A3017 RMK A01 T03030150  RH  039%=      5-min Rain = 0
KDC1 102025Z 12005KT 30/15 A3017 RMK A01 T03000149  RH  040%=      5-min Rain = 0
KDC1 102026Z 09004KT 30/15 A3017 RMK A01 T02980148  RH  040%=      5-min Rain = 0
KDC1 102027Z 09005KT 30/15 A3017 RMK A01 T02990148  RH  040%=      5-min Rain = 0
KDC1 102028Z 12002KT 30/15 A3016 RMK A01 T03000150  RH  040%=      5-min Rain = 0
KDC1 102029Z 06002KT 30/15 A3016 RMK A01 T03020150  RH  040%=      5-min Rain = 0
KDC1 102030Z 14003KT 30/15 A3016 RMK A01 T03020150  RH  040%=      5-min Rain = 0
KDC1 102031Z 16009KT 30/16 A3016 RMK A01 T03030155  RH  041%=      5-min Rain = 0
KDC1 102032Z 16007KT 30/15 A3016 RMK A01 T03040149  RH  039%=      5-min Rain = 0
KDC1 102033Z 16007KT 30/15 A3016 RMK A01 T03040149  RH  039%=      5-min Rain = 0
KDC1 102034Z 15007KT 30/15 A3016 RMK A01 T03030148  RH  039%=      5-min Rain = 0
KDC1 102035Z 13003KT 30/15 A3016 RMK A01 T03020148  RH  039%=      5-min Rain = 0
KDC1 102036Z 13006KT 30/15 A3016 RMK A01 T03010149  RH  040%=      5-min Rain = 0
KDC1 102037Z 15008KT 30/15 A3016 RMK A01 T03030151  RH  040%=      5-min Rain = 0
KDC1 102038Z 15007KT 31/15 A3016 RMK A01 T03060151  RH  039%=      5-min Rain = 0
KDC1 102039Z 15005KT 31/15 A3016 RMK A01 T03070149  RH  038%=      5-min Rain = 0
KDC1 102040Z 16004KT 31/15 A3016 RMK A01 T03050149  RH  039%=      5-min Rain = 0
KDC1 102041Z 19002KT 31/15 A3016 RMK A01 T03050148  RH  038%=      5-min Rain = 0
KDC1 102042Z 17002KT 31/15 A3016 RMK A01 T03060148  RH  038%=      5-min Rain = 0
KDC1 102043Z 16004KT 31/15 A3016 RMK A01 T03080150  RH  038%=      5-min Rain = 0
KDC1 102044Z 18004KT 31/15 A3016 RMK A01 T03110149  RH  038%=      5-min Rain = 0
KDC1 102045Z 16007G12KT 31/15 A3016 RMK A01 T03100150  RH  038%=      5-min Rain = 0
KDC1 102046Z 16010KT 31/15 A3016 RMK A01 T03110152  RH  038%=      5-min Rain = 0
KDC1 102047Z 17009KT 31/15 A3016 RMK A01 T03120148  RH  037%=      5-min Rain = 0
KDC1 102048Z 16008KT 31/15 A3016 RMK A01 T03100149  RH  037%=      5-min Rain = 0
KDC1 102049Z 15007KT 31/15 A3016 RMK A01 T03110153  RH  038%=      5-min Rain = 0
KDC1 102050Z 12008KT 31/15 A3016 RMK A01 T03140151  RH  037%=      5-min Rain = 0
KDC1 102051Z 14009G14KT 31/15 A3016 RMK A01 T03140152  RH  038%=      5-min Rain = 0
KDC1 102052Z 14010KT 31/15 A3016 RMK A01 T03110148  RH  037%=      5-min Rain = 0
KDC1 102053Z 14012KT 31/15 A3016 RMK A01 T03100150  RH  038%=      5-min Rain = 0
KDC1 102054Z 13009KT 31/15 A3016 RMK A01 T03090148  RH  038%=      5-min Rain = 0
KDC1 102055Z 14009KT 31/15 A3016 RMK A01 T03080148  RH  038%=      5-min Rain = 0
KDC1 102056Z 13007KT 31/15 A3016 RMK A01 T03070146  RH  038%=      5-min Rain = 0
KDC1 102057Z 14007KT 31/15 A3016 RMK A01 T03060146  RH  038%=      5-min Rain = 0
KDC1 102058Z 14008KT 31/15 A3015 RMK A01 T03060147  RH  038%=      5-min Rain = 0
KDC1 102059Z 13005KT 31/15 A3015 RMK A01 T03060145  RH  038%=      5-min Rain = 0
KDC1 102100Z 12005KT 31/15 A3015 RMK A01 T03060145  RH  038%=      5-min Rain = 0
KDC1 102101Z 14004KT 31/15 A3015 RMK A01 T03060145  RH  038%=      5-min Rain = 0
KDC1 102102Z 14006KT 31/15 A3015 RMK A01 T03060147  RH  038%=      5-min Rain = 0
KDC1 102103Z 16006KT 31/15 A3015 RMK A01 T03060146  RH  038%=      5-min Rain = 0
KDC1 102104Z 18008KT 31/15 A3015 RMK A01 T03090147  RH  037%=      5-min Rain = 0
KDC1 102105Z 17006KT 31/15 A3015 RMK A01 T03100146  RH  037%=      5-min Rain = 0
KDC1 102106Z 18006KT 31/15 A3015 RMK A01 T03110145  RH  037%=      5-min Rain = 0
KDC1 102107Z 18006KT 31/15 A3015 RMK A01 T03120146  RH  037%=      5-min Rain = 0
KDC1 102108Z 19006KT 31/15 A3015 RMK A01 T03130145  RH  036%=      5-min Rain = 0
KDC1 102109Z 18002KT 31/15 A3015 RMK A01 T03120146  RH  036%=      5-min Rain = 0
KDC1 102110Z 16005KT 31/15 A3015 RMK A01 T03140146  RH  036%=      5-min Rain = 0
KDC1 102111Z 16006KT 32/15 A3015 RMK A01 T03150146  RH  036%=      5-min Rain = 0
KDC1 102112Z 15008KT 31/15 A3015 RMK A01 T03140150  RH  037%=      5-min Rain = 0
KDC1 102113Z 17007KT 31/15 A3015 RMK A01 T03140145  RH  036%=      5-min Rain = 0
KDC1 102114Z 20005KT 31/14 A3014 RMK A01 T03130144  RH  036%=      5-min Rain = 0
KDC1 102115Z 20003KT 31/14 A3014 RMK A01 T03110143  RH  036%=      5-min Rain = 0
KDC1 102116Z 15004KT 31/14 A3014 RMK A01 T03100143  RH  036%=      5-min Rain = 0
KDC1 102117Z 15004KT 31/14 A3014 RMK A01 T03090143  RH  036%=      5-min Rain = 0
KDC1 102118Z 15008G14KT 31/15 A3014 RMK A01 T03090147  RH  037%=      5-min Rain = 0
KDC1 102119Z 15010KT 31/15 A3014 RMK A01 T03090146  RH  037%=      5-min Rain = 0
KDC1 102120Z 15008KT 31/14 A3014 RMK A01 T03090144  RH  037%=      5-min Rain = 0
KDC1 102121Z 16008KT 31/15 A3014 RMK A01 T03080145  RH  037%=      5-min Rain = 0
KDC1 102122Z 15008KT 31/14 A3014 RMK A01 T03060144  RH  037%=      5-min Rain = 0
KDC1 102123Z 15006KT 31/15 A3014 RMK A01 T03050145  RH  038%=      5-min Rain = 0
KDC1 102124Z 14007KT 31/15 A3014 RMK A01 T03060152  RH  039%=      5-min Rain = 0
KDC1 102125Z 13008KT 31/15 A3014 RMK A01 T03080149  RH  038%=      5-min Rain = 0
KDC1 102126Z 13007KT 31/15 A3014 RMK A01 T03080145  RH  037%=      5-min Rain = 0
KDC1 102127Z 13006KT 31/15 A3014 RMK A01 T03080150  RH  038%=      5-min Rain = 0
KDC1 102128Z 14007KT 31/15 A3014 RMK A01 T03080150  RH  038%=      5-min Rain = 0
KDC1 102129Z 15004KT 31/15 A3014 RMK A01 T03090148  RH  038%=      5-min Rain = 0
KDC1 102130Z 14005KT 31/15 A3014 RMK A01 T03090149  RH  038%=      5-min Rain = 0
KDC1 102131Z 14007KT 31/15 A3014 RMK A01 T03090146  RH  037%=      5-min Rain = 0
KDC1 102132Z 15008KT 31/15 A3014 RMK A01 T03080146  RH  037%=      5-min Rain = 0
KDC1 102133Z 15007KT 31/15 A3014 RMK A01 T03080147  RH  038%=      5-min Rain = 0
KDC1 102134Z 15008KT 31/15 A3014 RMK A01 T03090147  RH  037%=      5-min Rain = 0
KDC1 102135Z 17007KT 31/14 A3014 RMK A01 T03100142  RH  036%=      5-min Rain = 0
KDC1 102136Z 18006KT 31/14 A3014 RMK A01 T03100139  RH  035%=      5-min Rain = 0
KDC1 102137Z 18005KT 31/14 A3014 RMK A01 T03100140  RH  035%=      5-min Rain = 0
KDC1 102138Z 18004KT 31/14 A3013 RMK A01 T03090139  RH  035%=      5-min Rain = 0
KDC1 102139Z 17006KT 31/14 A3013 RMK A01 T03100140  RH  036%=      5-min Rain = 0
KDC1 102140Z 16006KT 31/14 A3013 RMK A01 T03110140  RH  035%=      5-min Rain = 0
KDC1 102141Z 15005KT 31/14 A3013 RMK A01 T03130139  RH  035%=      5-min Rain = 0
KDC1 102142Z 15006KT 31/14 A3013 RMK A01 T03130140  RH  035%=      5-min Rain = 0
KDC1 102143Z 15005KT 31/14 A3013 RMK A01 T03120138  RH  035%=      5-min Rain = 0
KDC1 102144Z 14004KT 31/14 A3013 RMK A01 T03090137  RH  035%=      5-min Rain = 0
KDC1 102145Z 14007KT 31/14 A3013 RMK A01 T03080140  RH  036%=      5-min Rain = 0
KDC1 102146Z 16005KT 31/14 A3013 RMK A01 T03080140  RH  036%=      5-min Rain = 0
KDC1 102147Z 14006KT 31/14 A3013 RMK A01 T03080144  RH  037%=      5-min Rain = 0
KDC1 102148Z 13008KT 31/15 A3013 RMK A01 T03080146  RH  037%=      5-min Rain = 0
KDC1 102149Z 12006KT 31/14 A3013 RMK A01 T03090142  RH  036%=      5-min Rain = 0
KDC1 102150Z 14008KT 31/14 A3013 RMK A01 T03070144  RH  037%=      5-min Rain = 0
KDC1 102151Z 16008KT 31/14 A3013 RMK A01 T03090144  RH  037%=      5-min Rain = 0
KDC1 102152Z 13006KT 31/14 A3013 RMK A01 T03090140  RH  036%=      5-min Rain = 0
KDC1 102153Z 14007KT 31/15 A3013 RMK A01 T03090145  RH  037%=      5-min Rain = 0
KDC1 102154Z 14007KT 31/15 A3013 RMK A01 T03090146  RH  037%=      5-min Rain = 0
KDC1 102155Z 15007KT 31/15 A3013 RMK A01 T03090147  RH  037%=      5-min Rain = 0
KDC1 102156Z 14005KT 31/15 A3013 RMK A01 T03080147  RH  037%=      5-min Rain = 0
KDC1 102157Z 14004KT 31/15 A3012 RMK A01 T03090147  RH  037%=      5-min Rain = 0
KDC1 102158Z 13007KT 31/15 A3012 RMK A01 T03120147  RH  037%=      5-min Rain = 0
KDC1 102159Z 14006KT 31/15 A3012 RMK A01 T03110150  RH  038%=      5-min Rain = 0
KDC1 102200Z 14006KT 31/14 A3012 RMK A01 T03100142  RH  036%=      5-min Rain = 0
KDC1 102201Z 14006KT 31/15 A3012 RMK A01 T03090147  RH  037%=      5-min Rain = 0
KDC1 102202Z 14004KT 31/15 A3012 RMK A01 T03080147  RH  038%=      5-min Rain = 0
KDC1 102203Z 15006KT 31/15 A3012 RMK A01 T03070146  RH  038%=      5-min Rain = 0
KDC1 102204Z 16007KT 31/14 A3012 RMK A01 T03090141  RH  036%=      5-min Rain = 0
KDC1 102205Z 14010KT 31/15 A3012 RMK A01 T03110150  RH  038%=      5-min Rain = 0
KDC1 102206Z 14010KT 31/15 A3012 RMK A01 T03110154  RH  039%=      5-min Rain = 0
KDC1 102207Z 14011KT 31/15 A3012 RMK A01 T03100150  RH  038%=      5-min Rain = 0
KDC1 102208Z 15008KT 31/14 A3012 RMK A01 T03100142  RH  036%=      5-min Rain = 0
KDC1 102209Z 14008KT 31/14 A3012 RMK A01 T03100143  RH  036%=      5-min Rain = 0
KDC1 102210Z 13007KT 31/14 A3012 RMK A01 T03090141  RH  036%=      5-min Rain = 0
KDC1 102211Z 14008KT 31/15 A3012 RMK A01 T03080146  RH  037%=      5-min Rain = 0
KDC1 102212Z 15008KT 31/15 A3012 RMK A01 T03100150  RH  038%=      5-min Rain = 0
KDC1 102213Z 15008KT 31/15 A3012 RMK A01 T03110145  RH  037%=      5-min Rain = 0
KDC1 102214Z 16006KT 31/14 A3012 RMK A01 T03100141  RH  036%=      5-min Rain = 0
KDC1 102215Z 16006KT 31/14 A3012 RMK A01 T03090142  RH  036%=      5-min Rain = 0
KDC1 102216Z 16006KT 31/14 A3012 RMK A01 T03090143  RH  036%=      5-min Rain = 0
KDC1 102217Z 15007KT 31/15 A3012 RMK A01 T03090148  RH  038%=      5-min Rain = 0
KDC1 102218Z 15007KT 31/15 A3012 RMK A01 T03080154  RH  039%=      5-min Rain = 0
KDC1 102219Z 15007KT 31/15 A3012 RMK A01 T03060146  RH  038%=      5-min Rain = 0
KDC1 102220Z 16006KT 31/15 A3012 RMK A01 T03070145  RH  037%=      5-min Rain = 0
KDC1 102221Z 15006KT 31/14 A3012 RMK A01 T03090143  RH  036%=      5-min Rain = 0
KDC1 102222Z 15007KT 31/15 A3012 RMK A01 T03090146  RH  037%=      5-min Rain = 0
KDC1 102223Z 14007KT 31/15 A3012 RMK A01 T03080148  RH  038%=      5-min Rain = 0
KDC1 102224Z 14009KT 31/15 A3012 RMK A01 T03080154  RH  040%=      5-min Rain = 0
KDC1 102225Z 14008KT 31/15 A3012 RMK A01 T03080149  RH  038%=      5-min Rain = 0
KDC1 102226Z 14008KT 31/15 A3012 RMK A01 T03070152  RH  039%=      5-min Rain = 0
KDC1 102227Z 15009KT 31/15 A3012 RMK A01 T03050151  RH  039%=      5-min Rain = 0
KDC1 102228Z 14006KT 30/14 A3012 RMK A01 T03040144  RH  038%=      5-min Rain = 0
KDC1 102229Z 14005KT 31/14 A3012 RMK A01 T03050139  RH  036%=      5-min Rain = 0
KDC1 102230Z 15004KT 31/14 A3012 RMK A01 T03050139  RH  036%=      5-min Rain = 0
KDC1 102231Z 15005KT 31/14 A3012 RMK A01 T03050139  RH  036%=      5-min Rain = 0
KDC1 102232Z 14005KT 31/14 A3012 RMK A01 T03060138  RH  036%=      5-min Rain = 0
KDC1 102233Z 15006KT 31/14 A3012 RMK A01 T03060138  RH  036%=      5-min Rain = 0
KDC1 102234Z 14005KT 31/14 A3012 RMK A01 T03060140  RH  036%=      5-min Rain = 0
KDC1 102235Z 14005KT 31/15 A3012 RMK A01 T03060153  RH  039%=      5-min Rain = 0
KDC1 102236Z 13007KT 31/16 A3012 RMK A01 T03060155  RH  040%=      5-min Rain = 0
KDC1 102237Z 13008KT 31/15 A3012 RMK A01 T03050150  RH  039%=      5-min Rain = 0
KDC1 102238Z 13009KT 30/15 A3012 RMK A01 T03030154  RH  041%=      5-min Rain = 0
KDC1 102239Z 14007KT 30/16 A3012 RMK A01 T03010161  RH  043%=      5-min Rain = 0
KDC1 102240Z 14006KT 30/17 A3012 RMK A01 T03010166  RH  044%=      5-min Rain = 0
KDC1 102241Z 13007KT 30/16 A3012 RMK A01 T03010163  RH  043%=      5-min Rain = 0
KDC1 102242Z 13007KT 30/16 A3012 RMK A01 T03010160  RH  043%=      5-min Rain = 0
KDC1 102243Z 14008KT 30/16 A3012 RMK A01 T03000157  RH  042%=      5-min Rain = 0
KDC1 102244Z 15010KT 30/16 A3012 RMK A01 T03010156  RH  042%=      5-min Rain = 0
KDC1 102245Z 15008KT 30/15 A3012 RMK A01 T03000151  RH  040%=      5-min Rain = 0
KDC1 102246Z 16007KT 30/15 A3012 RMK A01 T03010148  RH  039%=      5-min Rain = 0
KDC1 102247Z 16006KT 30/15 A3012 RMK A01 T03010146  RH  039%=      5-min Rain = 0
KDC1 102248Z 15006KT 30/15 A3012 RMK A01 T03020147  RH  039%=      5-min Rain = 0
KDC1 102249Z 15006KT 30/15 A3012 RMK A01 T03020146  RH  039%=      5-min Rain = 0
KDC1 102250Z 16005KT 30/15 A3012 RMK A01 T03010147  RH  039%=      5-min Rain = 0
KDC1 102251Z 16006KT 30/15 A3011 RMK A01 T03020147  RH  039%=      5-min Rain = 0
KDC1 102252Z 15008KT 30/15 A3011 RMK A01 T03040148  RH  039%=      5-min Rain = 0
KDC1 102253Z 15007KT 30/15 A3011 RMK A01 T03040148  RH  039%=      5-min Rain = 0
KDC1 102254Z 15008KT 30/15 A3011 RMK A01 T03020149  RH  039%=      5-min Rain = 0
KDC1 102255Z 14007KT 30/15 A3011 RMK A01 T03010150  RH  040%=      5-min Rain = 0
KDC1 102256Z 14007KT 30/15 A3011 RMK A01 T03000154  RH  041%=      5-min Rain = 0
KDC1 102257Z 14007KT 30/16 A3011 RMK A01 T03000158  RH  042%=      5-min Rain = 0
KDC1 102258Z 13009KT 30/16 A3011 RMK A01 T02990158  RH  042%=      5-min Rain = 0
KDC1 102259Z 12010KT 30/16 A3011 RMK A01 T02960163  RH  044%=      5-min Rain = 0
KDC1 102300Z 12012KT 30/16 A3011 RMK A01 T02950163  RH  045%=      5-min Rain = 0
KDC1 102301Z 12009KT 29/16 A3011 RMK A01 T02940161  RH  045%=      5-min Rain = 0
KDC1 102302Z 11009KT 29/16 A3011 RMK A01 T02930163  RH  045%=      5-min Rain = 0
KDC1 102303Z 11009KT 29/16 A3011 RMK A01 T02930164  RH  046%=      5-min Rain = 0
KDC1 102304Z 11011KT 29/17 A3011 RMK A01 T02930165  RH  046%=      5-min Rain = 0
KDC1 102305Z 11010KT 29/17 A3011 RMK A01 T02940167  RH  046%=      5-min Rain = 0
KDC1 102306Z 11010KT 29/17 A3011 RMK A01 T02920166  RH  047%=      5-min Rain = 0
KDC1 102307Z 11011KT 29/17 A3011 RMK A01 T02910165  RH  047%=      5-min Rain = 0
KDC1 102308Z 11009KT 29/16 A3011 RMK A01 T02910163  RH  046%=      5-min Rain = 0
KDC1 102309Z 11010KT 29/16 A3011 RMK A01 T02910164  RH  046%=      5-min Rain = 0
KDC1 102310Z 12008KT 29/16 A3011 RMK A01 T02910164  RH  046%=      5-min Rain = 0
KDC1 102311Z 10009KT 29/16 A3011 RMK A01 T02910164  RH  046%=      5-min Rain = 0
KDC1 102312Z 10011KT 29/16 A3011 RMK A01 T02910163  RH  046%=      5-min Rain = 0
KDC1 102313Z 10009KT 29/17 A3011 RMK A01 T02870166  RH  048%=      5-min Rain = 0
KDC1 102314Z 10011KT 29/17 A3011 RMK A01 T02850167  RH  049%=      5-min Rain = 0
KDC1 102315Z 10010KT 28/17 A3011 RMK A01 T02840169  RH  050%=      5-min Rain = 0
KDC1 102316Z 10011KT 28/17 A3011 RMK A01 T02820167  RH  050%=      5-min Rain = 0
KDC1 102317Z 10011KT 28/17 A3011 RMK A01 T02820165  RH  049%=      5-min Rain = 0
KDC1 102318Z 10010KT 28/17 A3011 RMK A01 T02810166  RH  050%=      5-min Rain = 0
KDC1 102319Z 10011KT 28/17 A3011 RMK A01 T02820166  RH  049%=      5-min Rain = 0
KDC1 102320Z 10011KT 28/17 A3011 RMK A01 T02820165  RH  049%=      5-min Rain = 0
KDC1 102321Z 10010KT 28/17 A3011 RMK A01 T02810165  RH  049%=      5-min Rain = 0
KDC1 102322Z 10011KT 28/16 A3011 RMK A01 T02820163  RH  049%=      5-min Rain = 0
KDC1 102323Z 10010KT 28/16 A3011 RMK A01 T02810163  RH  049%=      5-min Rain = 0
KDC1 102324Z 10009KT 28/17 A3011 RMK A01 T02800165  RH  049%=      5-min Rain = 0
KDC1 102325Z 10010KT 28/17 A3011 RMK A01 T02790165  RH  050%=      5-min Rain = 0
KDC1 102326Z 10010KT 28/17 A3011 RMK A01 T02800165  RH  050%=      5-min Rain = 0
KDC1 102327Z 10010KT 28/16 A3011 RMK A01 T02800164  RH  049%=      5-min Rain = 0
KDC1 102328Z 11008KT 28/16 A3011 RMK A01 T02810162  RH  048%=      5-min Rain = 0
KDC1 102329Z 11009KT 28/16 A3011 RMK A01 T02820162  RH  048%=      5-min Rain = 0
KDC1 102330Z 11009KT 28/16 A301 RMK A01 T02840162  RH  047%=      5-min Rain = 0
KDC1 102331Z 12008KT 29/16 A301 RMK A01 T02850162  RH  047%=      5-min Rain = 0
KDC1 102332Z 11009KT 29/16 A301 RMK A01 T02860162  RH  047%=      5-min Rain = 0
KDC1 102333Z 12007KT 29/16 A301 RMK A01 T02860162  RH  047%=      5-min Rain = 0
KDC1 102334Z 12006KT 29/17 A301 RMK A01 T02860165  RH  048%=      5-min Rain = 0
KDC1 102335Z 12008KT 29/17 A301 RMK A01 T02850165  RH  048%=      5-min Rain = 0
KDC1 102336Z 12009KT 29/16 A301 RMK A01 T02860163  RH  047%=      5-min Rain = 0
KDC1 102337Z 12009KT 29/16 A301 RMK A01 T02860164  RH  047%=      5-min Rain = 0
KDC1 102338Z 12009KT 29/16 A301 RMK A01 T02870163  RH  047%=      5-min Rain = 0
KDC1 102339Z 12008KT 29/16 A301 RMK A01 T02860162  RH  047%=      5-min Rain = 0
KDC1 102340Z 12008KT 29/16 A301 RMK A01 T02870163  RH  047%=      5-min Rain = 0
KDC1 102341Z 12007KT 29/16 A301 RMK A01 T02870163  RH  047%=      5-min Rain = 0
KDC1 102342Z 12009KT 29/16 A301 RMK A01 T02890163  RH  046%=      5-min Rain = 0
KDC1 102343Z 11010KT 29/16 A301 RMK A01 T02900159  RH  045%=      5-min Rain = 0
KDC1 102344Z 11008KT 29/16 A301 RMK A01 T02910160  RH  045%=      5-min Rain = 0
KDC1 102345Z 12009KT 29/16 A301 RMK A01 T02940159  RH  044%=      5-min Rain = 0
KDC1 102346Z 11010KT 29/16 A301 RMK A01 T02940158  RH  044%=      5-min Rain = 0
KDC1 102347Z 11010KT 29/16 A301 RMK A01 T02930156  RH  044%=      5-min Rain = 0
KDC1 102348Z 11009KT 29/16 A301 RMK A01 T02930157  RH  044%=      5-min Rain = 0
KDC1 102349Z 11009KT 29/16 A301 RMK A01 T02930157  RH  044%=      5-min Rain = 0
KDC1 102350Z 11008KT 29/16 A301 RMK A01 T02940156  RH  043%=      5-min Rain = 0
KDC1 102351Z 10008KT 29/16 A301 RMK A01 T02940155  RH  043%=      5-min Rain = 0
KDC1 102352Z 11009KT 30/15 A301 RMK A01 T02960154  RH  042%=      5-min Rain = 0
KDC1 102353Z 10009KT 30/15 A301 RMK A01 T02960154  RH  042%=      5-min Rain = 0
KDC1 102354Z 10008KT 30/16 A301 RMK A01 T02960155  RH  042%=      5-min Rain = 0
KDC1 102355Z 10009KT 30/16 A301 RMK A01 T02960155  RH  043%=      5-min Rain = 0
KDC1 102356Z 10008KT 30/15 A301 RMK A01 T02960152  RH  042%=      5-min Rain = 0
KDC1 102357Z 10009KT 30/15 A301 RMK A01 T02980152  RH  041%=      5-min Rain = 0
KDC1 102358Z 10008KT 30/15 A301 RMK A01 T02980153  RH  042%=      5-min Rain = 0
KDC1 102359Z 11007KT 30/16 A301 RMK A01 T02980156  RH  042%=      5-min Rain = 0
KDC1 110000Z 10010KT 30/16 A301 RMK A01 T02990156  RH  042%=      5-min Rain = 0
KDC1 110001Z 10009KT 30/15 A301 RMK A01 T02980153  RH  041%=      5-min Rain = 0
KDC1 110002Z 10010KT 30/15 A301 RMK A01 T02980154  RH  042%=      5-min Rain = 0
KDC1 110003Z 10009KT 30/16 A301 RMK A01 T02980155  RH  042%=      5-min Rain = 0
KDC1 110004Z 10009KT 30/16 A301 RMK A01 T02980157  RH  043%=      5-min Rain = 0
KDC1 110005Z 09009KT 30/16 A301 RMK A01 T02980157  RH  043%=      5-min Rain = 0
KDC1 110006Z 10008KT 30/16 A301 RMK A01 T02970157  RH  043%=      5-min Rain = 0
KDC1 110007Z 09008KT 30/16 A301 RMK A01 T02970156  RH  042%=      5-min Rain = 0
KDC1 110008Z 10008KT 30/15 A301 RMK A01 T02970153  RH  042%=      5-min Rain = 0
KDC1 110009Z 09007KT 30/16 A301 RMK A01 T02970155  RH  042%=      5-min Rain = 0
KDC1 110010Z 08007KT 30/16 A301 RMK A01 T02980160  RH  043%=      5-min Rain = 0
KDC1 110011Z 08008KT 30/16 A301 RMK A01 T02970161  RH  044%=      5-min Rain = 0
KDC1 110012Z 08008KT 30/16 A301 RMK A01 T02960163  RH  044%=      5-min Rain = 0
KDC1 110013Z 07008KT 30/16 A301 RMK A01 T02960163  RH  045%=      5-min Rain = 0
KDC1 110014Z 08007KT 30/16 A301 RMK A01 T02950164  RH  045%=      5-min Rain = 0
KDC1 110015Z 08008KT 30/17 A301 RMK A01 T02950166  RH  046%=      5-min Rain = 0
KDC1 110016Z 09009KT 30/17 A301 RMK A01 T02950165  RH  046%=      5-min Rain = 0
KDC1 110017Z 09008KT 30/16 A301 RMK A01 T02960160  RH  044%=      5-min Rain = 0
KDC1 110018Z 10006KT 30/16 A301 RMK A01 T02960160  RH  044%=      5-min Rain = 0
KDC1 110019Z 10007KT 30/16 A301 RMK A01 T02960163  RH  045%=      5-min Rain = 0
KDC1 110020Z 10009KT 30/16 A301 RMK A01 T02960162  RH  044%=      5-min Rain = 0
KDC1 110021Z 10009KT 30/16 A301 RMK A01 T02970160  RH  044%=      5-min Rain = 0
KDC1 110022Z 10010KT 30/16 A301 RMK A01 T02970158  RH  043%=      5-min Rain = 0
KDC1 110023Z 09011KT 30/16 A301 RMK A01 T02970158  RH  043%=      5-min Rain = 0
KDC1 110024Z 10011KT 30/16 A301 RMK A01 T02970157  RH  043%=      5-min Rain = 0
KDC1 110025Z 10009KT 30/16 A301 RMK A01 T02970159  RH  043%=      5-min Rain = 0
KDC1 110026Z 10009KT 30/16 A301 RMK A01 T02960159  RH  043%=      5-min Rain = 0
KDC1 110027Z 11008KT 30/16 A3009 RMK A01 T02950159  RH  044%=      5-min Rain = 0
KDC1 110028Z 12009KT 30/16 A3009 RMK A01 T02950161  RH  044%=      5-min Rain = 0
KDC1 110029Z 13009KT 29/16 A301 RMK A01 T02940164  RH  046%=      5-min Rain = 0
KDC1 110030Z 13008KT 29/17 A301 RMK A01 T02920165  RH  046%=      5-min Rain = 0
KDC1 110031Z 14008KT 29/17 A301 RMK A01 T02910167  RH  047%=      5-min Rain = 0
KDC1 110032Z 17006KT 29/17 A301 RMK A01 T02900170  RH  048%=      5-min Rain = 0
KDC1 110033Z 19005KT 29/17 A301 RMK A01 T02880174  RH  050%=      5-min Rain = 0
KDC1 110034Z 19004KT 29/17 A301 RMK A01 T02850171  RH  050%=      5-min Rain = 0
KDC1 110035Z 19005KT 29/17 A301 RMK A01 T02850165  RH  048%=      5-min Rain = 0
KDC1 110036Z 20006KT 29/16 A301 RMK A01 T02870159  RH  046%=      5-min Rain = 0
KDC1 110037Z 19006KT 29/16 A301 RMK A01 T02880158  RH  045%=      5-min Rain = 0
KDC1 110038Z 20004KT 29/16 A301 RMK A01 T02890157  RH  045%=      5-min Rain = 0
KDC1 110039Z 22004KT 29/16 A301 RMK A01 T02890156  RH  045%=      5-min Rain = 0
KDC1 110040Z 22004KT 29/16 A301 RMK A01 T02900157  RH  045%=      5-min Rain = 0
KDC1 110041Z 20004KT 29/16 A301 RMK A01 T02890157  RH  045%=      5-min Rain = 0
KDC1 110042Z 20004KT 29/16 A301 RMK A01 T02900158  RH  045%=      5-min Rain = 0
KDC1 110043Z 21003KT 29/16 A301 RMK A01 T02900157  RH  045%=      5-min Rain = 0
KDC1 110044Z 21005KT 29/16 A301 RMK A01 T02890158  RH  045%=      5-min Rain = 0
KDC1 110045Z 22002KT 29/16 A301 RMK A01 T02890158  RH  045%=      5-min Rain = 0
KDC1 110046Z 23001KT 29/16 A301 RMK A01 T02890159  RH  045%=      5-min Rain = 0
KDC1 110047Z 19003KT 29/16 A301 RMK A01 T02890159  RH  045%=      5-min Rain = 0
KDC1 110048Z 20005KT 29/16 A301 RMK A01 T02900159  RH  045%=      5-min Rain = 0
KDC1 110049Z 25004KT 29/16 A301 RMK A01 T02890160  RH  046%=      5-min Rain = 0
KDC1 110050Z 24004KT 29/16 A301 RMK A01 T02890162  RH  046%=      5-min Rain = 0
KDC1 110051Z 23002KT 29/16 A301 RMK A01 T02890164  RH  047%=      5-min Rain = 0
KDC1 110052Z 24003KT 29/17 A301 RMK A01 T02880166  RH  048%=      5-min Rain = 0
KDC1 110053Z 24003KT 29/17 A301 RMK A01 T02880166  RH  048%=      5-min Rain = 0
KDC1 110054Z 24002KT 29/17 A301 RMK A01 T02880165  RH  047%=      5-min Rain = 0
KDC1 110055Z 24002KT 29/17 A3011 RMK A01 T02870166  RH  048%=      5-min Rain = 0
KDC1 110056Z 24001KT 29/17 A3011 RMK A01 T02870168  RH  048%=      5-min Rain = 0
KDC1 110057Z 22002KT 29/17 A3011 RMK A01 T02870166  RH  048%=      5-min Rain = 0
KDC1 110058Z 21003KT 29/17 A3011 RMK A01 T02870166  RH  048%=      5-min Rain = 0
KDC1 110059Z 20003KT 29/17 A3011 RMK A01 T02860166  RH  048%=      5-min Rain = 0
KDC1 110100Z 22002KT 29/17 A3011 RMK A01 T02850165  RH  048%=      5-min Rain = 0
KDC1 110101Z 22002KT 29/17 A3011 RMK A01 T02850165  RH  048%=      5-min Rain = 0
KDC1 110102Z 21005KT 29/16 A3011 RMK A01 T02850164  RH  048%=      5-min Rain = 0
KDC1 110103Z 20007KT 29/16 A3011 RMK A01 T02850162  RH  047%=      5-min Rain = 0
KDC1 110104Z 20007KT 28/16 A3011 RMK A01 T02840160  RH  047%=      5-min Rain = 0
KDC1 110105Z 21006KT 28/16 A3011 RMK A01 T02840159  RH  047%=      5-min Rain = 0
KDC1 110106Z 21005G10KT 28/16 A3011 RMK A01 T02830159  RH  047%=      5-min Rain = 0
KDC1 110107Z 20005KT 28/16 A3011 RMK A01 T02830159  RH  047%=      5-min Rain = 0
KDC1 110108Z 20006KT 28/16 A3011 RMK A01 T02830159  RH  047%=      5-min Rain = 0
KDC1 110109Z 21006KT 28/16 A3011 RMK A01 T02830159  RH  047%=      5-min Rain = 0
KDC1 110110Z 22003KT 28/16 A3011 RMK A01 T02830160  RH  047%=      5-min Rain = 0
KDC1 110111Z 22004KT 28/16 A3011 RMK A01 T02830162  RH  048%=      5-min Rain = 0
KDC1 110112Z 21003KT 28/16 A3011 RMK A01 T02820163  RH  048%=      5-min Rain = 0
KDC1 110113Z 21005KT 28/16 A3011 RMK A01 T02810163  RH  049%=      5-min Rain = 0
KDC1 110114Z 22004G9KT 28/16 A3011 RMK A01 T02800163  RH  049%=      5-min Rain = 0
KDC1 110115Z 23005KT 28/16 A3011 RMK A01 T02800163  RH  049%=      5-min Rain = 0
KDC1 110116Z 21004KT 28/16 A3011 RMK A01 T02790163  RH  049%=      5-min Rain = 0
KDC1 110117Z 22005KT 28/16 A3011 RMK A01 T02780163  RH  049%=      5-min Rain = 0
KDC1 110118Z 21005KT 28/16 A3012 RMK A01 T02780164  RH  050%=      5-min Rain = 0
KDC1 110119Z 22004KT 28/16 A3012 RMK A01 T02780164  RH  050%=      5-min Rain = 0
KDC1 110120Z 21004KT 28/16 A3012 RMK A01 T02780164  RH  050%=      5-min Rain = 0
KDC1 110121Z 23006KT 28/17 A3012 RMK A01 T02780166  RH  050%=      5-min Rain = 0
KDC1 110122Z 23006KT 28/17 A3012 RMK A01 T02770167  RH  051%=      5-min Rain = 0
KDC1 110123Z 23007KT 28/17 A3012 RMK A01 T02750168  RH  052%=      5-min Rain = 0
KDC1 110124Z 23008KT 27/17 A3012 RMK A01 T02730169  RH  053%=      5-min Rain = 0
KDC1 110125Z 23007KT 27/17 A3012 RMK A01 T02720170  RH  054%=      5-min Rain = 0
KDC1 110126Z 23007KT 27/17 A3012 RMK A01 T02710172  RH  055%=      5-min Rain = 0
KDC1 110127Z 24007KT 27/17 A3012 RMK A01 T02700174  RH  056%=      5-min Rain = 0
KDC1 110128Z 24008KT 27/17 A3012 RMK A01 T02680174  RH  056%=      5-min Rain = 0
KDC1 110129Z 23007KT 27/17 A3012 RMK A01 T02670174  RH  057%=      5-min Rain = 0
KDC1 110130Z 23008KT 27/17 A3012 RMK A01 T02670172  RH  056%=      5-min Rain = 0
KDC1 110131Z 24007KT 27/17 A3012 RMK A01 T02670172  RH  056%=      5-min Rain = 0
KDC1 110132Z 23007KT 27/17 A3012 RMK A01 T02660172  RH  056%=      5-min Rain = 0
KDC1 110133Z 24005KT 27/17 A3012 RMK A01 T02660172  RH  056%=      5-min Rain = 0
KDC1 110134Z 24005KT 27/18 A3012 RMK A01 T02660175  RH  057%=      5-min Rain = 0
KDC1 110135Z 25006KT 26/18 A3012 RMK A01 T02640176  RH  058%=      5-min Rain = 0
KDC1 110136Z 24007KT 26/18 A3012 RMK A01 T02630176  RH  059%=      5-min Rain = 0
KDC1 110137Z 24008G13KT 26/18 A3012 RMK A01 T02620176  RH  059%=      5-min Rain = 0
KDC1 110138Z 25008KT 26/17 A3012 RMK A01 T02620174  RH  059%=      5-min Rain = 0
KDC1 110139Z 24007KT 26/18 A3012 RMK A01 T02620175  RH  059%=      5-min Rain = 0
KDC1 110140Z 25006KT 26/18 A3012 RMK A01 T02620176  RH  059%=      5-min Rain = 0
KDC1 110141Z 25006KT 26/18 A3012 RMK A01 T02620176  RH  059%=      5-min Rain = 0
KDC1 110142Z 25008KT 26/18 A3012 RMK A01 T02610175  RH  059%=      5-min Rain = 0
KDC1 110143Z 25009KT 26/17 A3012 RMK A01 T02600172  RH  058%=      5-min Rain = 0
KDC1 110144Z 25008KT 26/17 A3012 RMK A01 T02600172  RH  058%=      5-min Rain = 0
KDC1 110145Z 25006KT 26/17 A3012 RMK A01 T02590173  RH  059%=      5-min Rain = 0
KDC1 110146Z 25007KT 26/18 A3013 RMK A01 T02590175  RH  060%=      5-min Rain = 0
KDC1 110147Z 25006KT 26/18 A3013 RMK A01 T02580176  RH  060%=      5-min Rain = 0
KDC1 110148Z 25005KT 26/18 A3013 RMK A01 T02580177  RH  061%=      5-min Rain = 0
KDC1 110149Z 24003KT 26/18 A3013 RMK A01 T02580177  RH  061%=      5-min Rain = 0
KDC1 110150Z 24002KT 26/18 A3013 RMK A01 T02580177  RH  061%=      5-min Rain = 0
KDC1 110151Z 25002KT 26/18 A3013 RMK A01 T02580177  RH  061%=      5-min Rain = 0
KDC1 110152Z 24002KT 26/18 A3013 RMK A01 T02590177  RH  061%=      5-min Rain = 0
KDC1 110153Z 22003KT 26/18 A3013 RMK A01 T02590177  RH  060%=      5-min Rain = 0
KDC1 110154Z 17004KT 26/18 A3013 RMK A01 T02590178  RH  061%=      5-min Rain = 0
KDC1 110155Z 15005KT 26/18 A3013 RMK A01 T02590176  RH  060%=      5-min Rain = 0
KDC1 110156Z 15006KT 26/17 A3014 RMK A01 T02600173  RH  059%=      5-min Rain = 0
KDC1 110157Z 12005G11KT 26/17 A3014 RMK A01 T02620169  RH  057%=      5-min Rain = 0
KDC1 110158Z 12010KT 26/17 A3014 RMK A01 T02620172  RH  058%=      5-min Rain = 0
KDC1 110159Z 12009KT 26/18 A3014 RMK A01 T02580183  RH  063%=      5-min Rain = 0
KDC1 110200Z 12009KT 25/18 A3014 RMK A01 T02530184  RH  065%=      5-min Rain = 0
KDC1 110201Z 12010KT 25/19 A3014 RMK A01 T02500186  RH  067%=      5-min Rain = 0
KDC1 110202Z 12009KT 25/19 A3014 RMK A01 T02490185  RH  067%=      5-min Rain = 0
KDC1 110203Z 12011KT 25/19 A3014 RMK A01 T02480185  RH  068%=      5-min Rain = 0.02
KDC1 110204Z 11013KT 25/19 A3014 RMK A01 T02470186  RH  069%=      5-min Rain = 0.02
KDC1 110205Z 12014KT 24/19 A3014 RMK A01 T02430188  RH  071%=      5-min Rain = 0
KDC1 110206Z 12010KT 24/18 A3014 RMK A01 T02420181  RH  069%=      5-min Rain = 0.01
KDC1 110207Z 12006KT 25/17 A3014 RMK A01 T02460174  RH  064%=      5-min Rain = 0.01
KDC1 110208Z 10004KT 25/17 A3014 RMK A01 T02500170  RH  061%=      5-min Rain = 0
KDC1 110209Z 11003KT 25/17 A3014 RMK A01 T02530170  RH  060%=      5-min Rain = 0.02
KDC1 110210Z 12003KT 25/18 A3014 RMK A01 T02530180  RH  064%=      5-min Rain = 0.02
KDC1 110211Z 07001KT 25/17 A3014 RMK A01 T02500171  RH  062%=      5-min Rain = 0.01
KDC1 110212Z 00004KT 25/16 A3014 RMK A01 T02500160  RH  058%=      5-min Rain = 0
KDC1 110213Z 35004G9KT 25/16 A3013 RMK A01 T02520158  RH  056%=      5-min Rain = 0.02
KDC1 110214Z 33002KT 26/16 A3013 RMK A01 T02550160  RH  056%=      5-min Rain = 0
KDC1 110215Z 32002KT 26/16 A3013 RMK A01 T02560158  RH  055%=      5-min Rain = 0
KDC1 110216Z 31002KT 26/17 A3013 RMK A01 T02570165  RH  057%=      5-min Rain = 0
KDC1 110217Z 32004KT 26/17 A3013 RMK A01 T02560172  RH  059%=      5-min Rain = 0
KDC1 110218Z 31005KT 26/18 A3013 RMK A01 T02550179  RH  063%=      5-min Rain = 0
KDC1 110219Z 31005KT 25/18 A3013 RMK A01 T02520175  RH  062%=      5-min Rain = 0
KDC1 110220Z 30006KT 25/18 A3012 RMK A01 T02510176  RH  063%=      5-min Rain = 0.01
KDC1 110221Z 30006KT 25/17 A3012 RMK A01 T02500171  RH  062%=      5-min Rain = 0
KDC1 110222Z 30007KT 25/17 A3012 RMK A01 T02500169  RH  061%=      5-min Rain = 0
KDC1 110223Z 30008KT 25/18 A3012 RMK A01 T02520175  RH  063%=      5-min Rain = 0
KDC1 110224Z 30008KT 25/18 A3012 RMK A01 T02500176  RH  064%=      5-min Rain = 0
KDC1 110225Z 29008KT 25/18 A3012 RMK A01 T02480175  RH  064%=      5-min Rain = 0
KDC1 110226Z 30008KT 25/18 A3012 RMK A01 T02480175  RH  064%=      5-min Rain = 0
KDC1 110227Z 30008KT 25/18 A3012 RMK A01 T02480184  RH  068%=      5-min Rain = 0
KDC1 110228Z 30008KT 25/19 A3012 RMK A01 T02460185  RH  069%=      5-min Rain = 0
KDC1 110229Z 29008KT 24/18 A3012 RMK A01 T02440183  RH  069%=      5-min Rain = 0
KDC1 110230Z 29007KT 24/19 A3012 RMK A01 T02430186  RH  071%=      5-min Rain = 0
KDC1 110231Z 29008KT 24/19 A3012 RMK A01 T02410188  RH  072%=      5-min Rain = 0
KDC1 110232Z 30007KT 24/19 A3012 RMK A01 T02390191  RH  075%=      5-min Rain = 0
KDC1 110233Z 29008KT 24/19 A3012 RMK A01 T02380189  RH  074%=      5-min Rain = 0
KDC1 110234Z 29007KT 24/19 A3013 RMK A01 T02380185  RH  072%=      5-min Rain = 0
KDC1 110235Z 30007KT 24/19 A3013 RMK A01 T02390187  RH  073%=      5-min Rain = 0
KDC1 110236Z 29007KT 24/19 A3013 RMK A01 T02390187  RH  073%=      5-min Rain = 0
KDC1 110237Z 29006KT 24/19 A3013 RMK A01 T02380187  RH  073%=      5-min Rain = 0
KDC1 110238Z 28006KT 24/19 A3013 RMK A01 T02390188  RH  073%=      5-min Rain = 0
KDC1 110239Z 28005KT 24/19 A3013 RMK A01 T02400188  RH  073%=      5-min Rain = 0
KDC1 110240Z 27004KT 24/20 A3013 RMK A01 T02410196  RH  076%=      5-min Rain = 0
KDC1 110241Z 26003KT 24/20 A3013 RMK A01 T02410197  RH  076%=      5-min Rain = 0
KDC1 110242Z 25003KT 24/19 A3013 RMK A01 T02390190  RH  074%=      5-min Rain = 0
KDC1 110243Z 25003KT 24/19 A3013 RMK A01 T02380185  RH  072%=      5-min Rain = 0
KDC1 110244Z 23003KT 24/19 A3013 RMK A01 T02390186  RH  072%=      5-min Rain = 0
KDC1 110245Z 23002KT 24/19 A3013 RMK A01 T02390188  RH  073%=      5-min Rain = 0
KDC1 110246Z 22002KT 24/19 A3013 RMK A01 T02390189  RH  073%=      5-min Rain = 0
KDC1 110247Z 22003KT 24/19 A3013 RMK A01 T02390191  RH  074%=      5-min Rain = 0
KDC1 110248Z 21003KT 24/19 A3013 RMK A01 T02400192  RH  074%=      5-min Rain = 0
KDC1 110249Z 21005KT 24/18 A3013 RMK A01 T02400181  RH  070%=      5-min Rain = 0
KDC1 110250Z 20003KT 24/18 A3013 RMK A01 T02420178  RH  067%=      5-min Rain = 0
KDC1 110251Z 20003KT 24/19 A3013 RMK A01 T02440187  RH  070%=      5-min Rain = 0
KDC1 110252Z 20003KT 24/19 A3013 RMK A01 T02440191  RH  073%=      5-min Rain = 0
KDC1 110253Z 20004KT 24/19 A3013 RMK A01 T02420191  RH  073%=      5-min Rain = 0
KDC1 110254Z 22004KT 24/19 A3013 RMK A01 T02410185  RH  071%=      5-min Rain = 0
KDC1 110255Z 22004KT 24/18 A3013 RMK A01 T02410181  RH  069%=      5-min Rain = 0
KDC1 110256Z 21004KT 24/18 A3013 RMK A01 T02430182  RH  069%=      5-min Rain = 0
KDC1 110257Z 21004KT 24/18 A3013 RMK A01 T02440184  RH  069%=      5-min Rain = 0
KDC1 110258Z 21004KT 25/18 A3013 RMK A01 T02460181  RH  067%=      5-min Rain = 0
KDC1 110259Z 21003KT 25/18 A3013 RMK A01 T02470179  RH  066%=      5-min Rain = 0
KDC1 110300Z 20003KT 25/18 A3013 RMK A01 T02470180  RH  066%=      5-min Rain = 0
KDC1 110301Z 20003KT 25/18 A3013 RMK A01 T02480182  RH  067%=      5-min Rain = 0
KDC1 110302Z 19003KT 25/18 A3013 RMK A01 T02480182  RH  067%=      5-min Rain = 0
KDC1 110303Z 19003KT 25/19 A3013 RMK A01 T02480185  RH  068%=      5-min Rain = 0
KDC1 110304Z 18003KT 25/19 A3013 RMK A01 T02490192  RH  071%=      5-min Rain = 0
KDC1 110305Z 17002KT 25/19 A3013 RMK A01 T02480189  RH  070%=      5-min Rain = 0
KDC1 110306Z 16003KT 25/19 A3014 RMK A01 T02460191  RH  071%=      5-min Rain = 0
KDC1 110307Z 16003KT 25/20 A3013 RMK A01 T02460195  RH  073%=      5-min Rain = 0
KDC1 110308Z 15004KT 25/20 A3014 RMK A01 T02450199  RH  076%=      5-min Rain = 0
KDC1 110309Z 13004KT 24/21 A3014 RMK A01 T02440205  RH  079%=      5-min Rain = 0
KDC1 110310Z 13005KT 24/20 A3014 RMK A01 T02420203  RH  079%=      5-min Rain = 0
KDC1 110311Z 13005KT 24/20 A3014 RMK A01 T02400204  RH  080%=      5-min Rain = 0
KDC1 110312Z 14005KT 24/20 A3014 RMK A01 T02380204  RH  081%=      5-min Rain = 0
KDC1 110313Z 14005KT 24/20 A3014 RMK A01 T02360204  RH  082%=      5-min Rain = 0
KDC1 110314Z 14004KT 23/20 A3014 RMK A01 T02340203  RH  082%=      5-min Rain = 0
KDC1 110315Z 14004KT 23/20 A3014 RMK A01 T02330204  RH  084%=      5-min Rain = 0
KDC1 110316Z 14004KT 23/21 A3014 RMK A01 T02320205  RH  084%=      5-min Rain = 0
KDC1 110317Z 15004KT 23/20 A3014 RMK A01 T02320202  RH  083%=      5-min Rain = 0
KDC1 110318Z 14004KT 23/20 A3014 RMK A01 T02310198  RH  081%=      5-min Rain = 0
KDC1 110319Z 13004KT 23/20 A3014 RMK A01 T02310199  RH  082%=      5-min Rain = 0
KDC1 110320Z 12004KT 23/20 A3014 RMK A01 T02310200  RH  083%=      5-min Rain = 0
KDC1 110321Z 12004KT 23/20 A3014 RMK A01 T02310199  RH  082%=      5-min Rain = 0
KDC1 110322Z 12005KT 23/20 A3014 RMK A01 T02310201  RH  083%=      5-min Rain = 0
KDC1 110323Z 12005KT 23/20 A3014 RMK A01 T02310202  RH  083%=      5-min Rain = 0
KDC1 110324Z 12005KT 23/20 A3014 RMK A01 T02310202  RH  084%=      5-min Rain = 0
KDC1 110325Z 12005KT 23/20 A3014 RMK A01 T02310202  RH  084%=      5-min Rain = 0
KDC1 110326Z 12005KT 23/20 A3014 RMK A01 T02310204  RH  085%=      5-min Rain = 0
KDC1 110327Z 12005KT 23/20 A3014 RMK A01 T02310203  RH  085%=      5-min Rain = 0
KDC1 110328Z 12005KT 23/20 A3014 RMK A01 T02310202  RH  084%=      5-min Rain = 0
KDC1 110329Z 11004KT 23/20 A3014 RMK A01 T02310201  RH  083%=      5-min Rain = 0
KDC1 110330Z 11004KT 23/20 A3014 RMK A01 T02320204  RH  084%=      5-min Rain = 0
KDC1 110331Z 10006KT 23/20 A3014 RMK A01 T02330204  RH  084%=      5-min Rain = 0
KDC1 110332Z 10006KT 23/20 A3014 RMK A01 T02340198  RH  081%=      5-min Rain = 0
KDC1 110333Z 10005KT 24/20 A3014 RMK A01 T02350200  RH  081%=      5-min Rain = 0
KDC1 110334Z 10006KT 24/20 A3014 RMK A01 T02360200  RH  080%=      5-min Rain = 0
KDC1 110335Z 10006KT 24/20 A3014 RMK A01 T02360197  RH  079%=      5-min Rain = 0
KDC1 110336Z 10007KT 24/20 A3014 RMK A01 T02360195  RH  077%=      5-min Rain = 0
KDC1 110337Z 10008KT 24/19 A3015 RMK A01 T02370186  RH  073%=      5-min Rain = 0
KDC1 110338Z 10008KT 24/19 A3015 RMK A01 T02390185  RH  072%=      5-min Rain = 0
KDC1 110339Z 10007KT 24/18 A3015 RMK A01 T02390184  RH  072%=      5-min Rain = 0
KDC1 110340Z 10006KT 24/19 A3015 RMK A01 T02380187  RH  073%=      5-min Rain = 0
KDC1 110341Z 11005KT 24/19 A3015 RMK A01 T02370191  RH  076%=      5-min Rain = 0
KDC1 110342Z 13004KT 24/19 A3015 RMK A01 T02350192  RH  077%=      5-min Rain = 0
KDC1 110343Z 15004KT 23/19 A3015 RMK A01 T02330190  RH  077%=      5-min Rain = 0
KDC1 110344Z 14004KT 23/18 A3015 RMK A01 T02320182  RH  073%=      5-min Rain = 0
KDC1 110345Z 12004KT 23/18 A3015 RMK A01 T02320180  RH  072%=      5-min Rain = 0
KDC1 110346Z 11005KT 23/18 A3015 RMK A01 T02330181  RH  072%=      5-min Rain = 0
KDC1 110347Z 11005KT 23/18 A3015 RMK A01 T02340179  RH  071%=      5-min Rain = 0
KDC1 110348Z 11005KT 24/18 A3015 RMK A01 T02350179  RH  071%=      5-min Rain = 0
KDC1 110349Z 10005KT 24/18 A3015 RMK A01 T02350180  RH  071%=      5-min Rain = 0
KDC1 110350Z 10005KT 24/19 A3015 RMK A01 T02350185  RH  073%=      5-min Rain = 0
KDC1 110351Z 10005KT 23/19 A3015 RMK A01 T02340187  RH  075%=      5-min Rain = 0
KDC1 110352Z 11004KT 23/19 A3015 RMK A01 T02330187  RH  075%=      5-min Rain = 0
KDC1 110353Z 11004KT 23/19 A3015 RMK A01 T02320191  RH  078%=      5-min Rain = 0
KDC1 110354Z 11004KT 23/19 A3015 RMK A01 T02300191  RH  078%=      5-min Rain = 0
KDC1 110355Z 12004KT 23/19 A3015 RMK A01 T02290190  RH  078%=      5-min Rain = 0
KDC1 110356Z 13004KT 23/19 A3015 RMK A01 T02290190  RH  079%=      5-min Rain = 0
KDC1 110357Z 12004KT 23/19 A3015 RMK A01 T02280190  RH  079%=      5-min Rain = 0
KDC1 110358Z 12005KT 23/19 A3015 RMK A01 T02270188  RH  079%=      5-min Rain = 0
KDC1 110359Z 12005KT 23/19 A3015 RMK A01 T02260188  RH  079%=      5-min Rain = 0
KDC1 110400Z 13004KT 23/19 A3015 RMK A01 T02260186  RH  078%=      5-min Rain = 0
KDC1 110401Z 13003KT 23/19 A3015 RMK A01 T02260187  RH  078%=      5-min Rain = 0
KDC1 110402Z 14002KT 23/19 A3015 RMK A01 T02260188  RH  079%=      5-min Rain = 0
KDC1 110403Z 14002KT 23/19 A3015 RMK A01 T02260189  RH  079%=      5-min Rain = 0
KDC1 110404Z 13003KT 23/18 A3015 RMK A01 T02260184  RH  077%=      5-min Rain = 0
KDC1 110405Z 13003KT 23/19 A3015 RMK A01 T02260185  RH  078%=      5-min Rain = 0
KDC1 110406Z 14003KT 23/19 A3015 RMK A01 T02260189  RH  080%=      5-min Rain = 0
KDC1 110407Z 14003KT 23/19 A3015 RMK A01 T02250189  RH  080%=      5-min Rain = 0
KDC1 110408Z 15003KT 23/19 A3015 RMK A01 T02250187  RH  079%=      5-min Rain = 0
KDC1 110409Z 14004KT 22/19 A3015 RMK A01 T02240187  RH  079%=      5-min Rain = 0
KDC1 110410Z 14004KT 22/19 A3015 RMK A01 T02240187  RH  079%=      5-min Rain = 0
KDC1 110411Z 14004KT 22/19 A3015 RMK A01 T02240187  RH  079%=      5-min Rain = 0
KDC1 110412Z 15004KT 23/19 A3015 RMK A01 T02250186  RH  079%=      5-min Rain = 0
KDC1 110413Z 15004KT 23/19 A3015 RMK A01 T02260185  RH  078%=      5-min Rain = 0
KDC1 110414Z 16003KT 23/18 A3015 RMK A01 T02270184  RH  077%=      5-min Rain = 0
KDC1 110415Z 15004KT 23/19 A3015 RMK A01 T02280185  RH  077%=      5-min Rain = 0
KDC1 110416Z 15004KT 23/19 A3015 RMK A01 T02280186  RH  077%=      5-min Rain = 0
KDC1 110417Z 15003KT 23/19 A3015 RMK A01 T02280186  RH  077%=      5-min Rain = 0
KDC1 110418Z 14004KT 23/19 A3015 RMK A01 T02290186  RH  077%=      5-min Rain = 0
KDC1 110419Z 14004KT 23/19 A3015 RMK A01 T02290187  RH  077%=      5-min Rain = 0
KDC1 110420Z 14003KT 23/19 A3015 RMK A01 T02290186  RH  077%=      5-min Rain = 0
KDC1 110421Z 14004KT 23/19 A3015 RMK A01 T02290188  RH  078%=      5-min Rain = 0
KDC1 110422Z 14004KT 23/19 A3015 RMK A01 T02280189  RH  078%=      5-min Rain = 0
KDC1 110423Z 14004KT 23/19 A3015 RMK A01 T02270188  RH  079%=      5-min Rain = 0
KDC1 110424Z 13005KT 23/19 A3015 RMK A01 T02270187  RH  078%=      5-min Rain = 0
KDC1 110425Z 13004KT 23/19 A3015 RMK A01 T02270187  RH  078%=      5-min Rain = 0
KDC1 110426Z 14004KT 23/19 A3015 RMK A01 T02260185  RH  078%=      5-min Rain = 0
KDC1 110427Z 15003KT 23/18 A3015 RMK A01 T02260184  RH  077%=      5-min Rain = 0
KDC1 110428Z 15003KT 23/19 A3015 RMK A01 T02260187  RH  079%=      5-min Rain = 0
KDC1 110429Z 15004KT 23/19 A3015 RMK A01 T02260188  RH  079%=      5-min Rain = 0
KDC1 110430Z 15004KT 23/19 A3015 RMK A01 T02260187  RH  078%=      5-min Rain = 0
KDC1 110431Z 15004KT 23/19 A3015 RMK A01 T02270188  RH  079%=      5-min Rain = 0
KDC1 110432Z 16003KT 23/19 A3015 RMK A01 T02270187  RH  078%=      5-min Rain = 0
KDC1 110433Z 14004KT 23/19 A3015 RMK A01 T02270189  RH  079%=      5-min Rain = 0
KDC1 110434Z 15003KT 23/19 A3015 RMK A01 T02270188  RH  079%=      5-min Rain = 0
KDC1 110435Z 15003KT 23/19 A3015 RMK A01 T02280189  RH  079%=      5-min Rain = 0
KDC1 110436Z 15003KT 23/19 A3015 RMK A01 T02280190  RH  079%=      5-min Rain = 0
KDC1 110437Z 15003KT 23/19 A3015 RMK A01 T02290190  RH  079%=      5-min Rain = 0
KDC1 110438Z 15003KT 23/19 A3015 RMK A01 T02280189  RH  078%=      5-min Rain = 0
KDC1 110439Z 15003KT 23/19 A3015 RMK A01 T02290190  RH  079%=      5-min Rain = 0
KDC1 110440Z 15003KT 23/19 A3015 RMK A01 T02290192  RH  080%=      5-min Rain = 0
KDC1 110441Z 15002KT 23/19 A3016 RMK A01 T02290193  RH  080%=      5-min Rain = 0
KDC1 110442Z 14002KT 23/19 A3016 RMK A01 T02290193  RH  080%=      5-min Rain = 0
KDC1 110443Z 14002KT 23/19 A3016 RMK A01 T02290193  RH  080%=      5-min Rain = 0
KDC1 110444Z 14002KT 23/19 A3016 RMK A01 T02280191  RH  079%=      5-min Rain = 0
KDC1 110445Z 14003KT 23/19 A3016 RMK A01 T02280192  RH  080%=      5-min Rain = 0
KDC1 110446Z 13003KT 23/19 A3016 RMK A01 T02270193  RH  081%=      5-min Rain = 0
KDC1 110447Z 13003KT 23/19 A3016 RMK A01 T02270193  RH  081%=      5-min Rain = 0
KDC1 110448Z 13003KT 23/19 A3016 RMK A01 T02260193  RH  082%=      5-min Rain = 0
KDC1 110449Z 14003KT 23/19 A3016 RMK A01 T02260194  RH  082%=      5-min Rain = 0
KDC1 110450Z 14004KT 23/20 A3016 RMK A01 T02250195  RH  083%=      5-min Rain = 0
KDC1 110451Z 14004KT 22/20 A3015 RMK A01 T02240196  RH  084%=      5-min Rain = 0
KDC1 110452Z 14004KT 22/20 A3015 RMK A01 T02240196  RH  084%=      5-min Rain = 0
KDC1 110453Z 14004KT 22/19 A3016 RMK A01 T02230194  RH  083%=      5-min Rain = 0
KDC1 110454Z 14004KT 22/19 A3016 RMK A01 T02230194  RH  083%=      5-min Rain = 0
KDC1 110455Z 14004KT 22/19 A3016 RMK A01 T02230193  RH  083%=      5-min Rain = 0
KDC1 110456Z 15004KT 22/19 A3016 RMK A01 T02230193  RH  083%=      5-min Rain = 0
KDC1 110457Z 15004KT 22/19 A3016 RMK A01 T02240191  RH  082%=      5-min Rain = 0
KDC1 110458Z 15004KT 22/19 A3016 RMK A01 T02240190  RH  081%=      5-min Rain = 0
KDC1 110459Z 16004KT 23/19 A3016 RMK A01 T02250190  RH  081%=      5-min Rain = 0
KDC1 110500Z 16003KT 23/19 A3016 RMK A01 T02260191  RH  081%=      5-min Rain = 0

Page generated in 0.0365 seconds.